PWSweather.com
Personal Weather Stations
Station Observations
HVALPSUND
Hvalpsund, FarsoeDK 9640

HvalpsundFarsoeDK 9640

Lat: 56.705311, Lon: 9.203638

Elevation: 5

Station Type: Vantage Pro2

http://hvalpsundvejr.dk

Latest ConditionsUpdated 7:28:00 AM GMT+01:01 Wednesday, Apr 25, 2018
Currently Today's Max Today's Min Today's Average
Temperature 45.2°F7.3°C 45.8°F7.7°C 44.7°F7.1°C 45.2°F7.3°C
Dew Point 41.9°F5.5°C 42.7°F5.9°C 40.9°F4.9°C 41.9°F5.5°C
Winds 10.1 mph WSW16.3 kmh WSW 18.8 mph WSW30.3 kmh WSW - 10.7 mph 17.2 kmh
Wind Gusts 12.0 mph19.3 kmh 20.0 mph32.2 kmh - -
Humidity 88% 89% 86% 88%
Pressure 29.53 in1000.0 mb 29.64 in1003.7 mb 29.52 in999.7 mb -
Hour Temp Dew Point Humidity Winds Wind Gusts Pressure Precip Precip Rate Daily Precip Total
07:28 AM 45.2°F7.3°C 41.9°F5.5°C 88% 10.1 mph WSW16.3 kmh WSW 12.0 mph19.3 kmh 29.53 in1000.0 mb 0.00 in0.0 mm 0.00 in0.0 mm 0.00 in0.0 mm
07:27 AM 45.2°F7.3°C 41.6°F5.3°C 87% 10.6 mph WSW17.1 kmh WSW 12.0 mph19.3 kmh 29.53 in1000.0 mb 0.00 in0.0 mm 0.00 in0.0 mm 0.00 in0.0 mm
07:26 AM 45.2°F7.3°C 41.9°F5.5°C 88% 10.4 mph WSW16.7 kmh WSW 12.0 mph19.3 kmh 29.53 in1000.0 mb 0.00 in0.0 mm 0.00 in0.0 mm 0.00 in0.0 mm
07:25 AM 45.3°F7.4°C 42.0°F5.6°C 88% 9.3 mph WSW15.0 kmh WSW 11.0 mph17.7 kmh 29.53 in1000.0 mb 0.00 in0.0 mm 0.00 in0.0 mm 0.00 in0.0 mm
07:24 AM 45.3°F7.4°C 42.0°F5.6°C 88% 9.8 mph WSW15.8 kmh WSW 11.0 mph17.7 kmh 29.53 in1000.0 mb 0.00 in0.0 mm 0.00 in0.0 mm 0.00 in0.0 mm
07:23 AM 45.4°F7.4°C 42.1°F5.6°C 88% 9.4 mph W15.1 kmh W 11.0 mph17.7 kmh 29.53 in1000.0 mb 0.00 in0.0 mm 0.00 in0.0 mm 0.00 in0.0 mm
07:22 AM 45.4°F7.4°C 42.1°F5.6°C 88% 9.0 mph W14.5 kmh W 11.0 mph17.7 kmh 29.53 in1000.0 mb 0.00 in0.0 mm 0.00 in0.0 mm 0.00 in0.0 mm
07:21 AM 45.3°F7.4°C 42.0°F5.6°C 88% 9.2 mph W14.8 kmh W 11.0 mph17.7 kmh 29.53 in1000.0 mb 0.00 in0.0 mm 0.00 in0.0 mm 0.00 in0.0 mm
07:20 AM 45.4°F7.4°C 42.1°F5.6°C 88% 9.7 mph WSW15.6 kmh WSW 11.0 mph17.7 kmh 29.53 in1000.0 mb 0.00 in0.0 mm 0.00 in0.0 mm 0.00 in0.0 mm
07:19 AM 45.4°F7.4°C 42.1°F5.6°C 88% 9.0 mph WSW14.5 kmh WSW 12.0 mph19.3 kmh 29.53 in1000.0 mb 0.00 in0.0 mm 0.00 in0.0 mm 0.00 in0.0 mm
07:18 AM 45.4°F7.4°C 42.1°F5.6°C 88% 10.5 mph WSW16.9 kmh WSW 12.0 mph19.3 kmh 29.53 in1000.0 mb 0.00 in0.0 mm 0.00 in0.0 mm 0.00 in0.0 mm
07:17 AM 45.3°F7.4°C 42.0°F5.6°C 88% 10.5 mph WSW16.9 kmh WSW 12.0 mph19.3 kmh 29.53 in1000.0 mb 0.00 in0.0 mm 0.00 in0.0 mm 0.00 in0.0 mm
07:16 AM 45.2°F7.3°C 41.9°F5.5°C 88% 10.7 mph WSW17.2 kmh WSW 12.0 mph19.3 kmh 29.53 in1000.0 mb 0.00 in0.0 mm 0.00 in0.0 mm 0.00 in0.0 mm
07:15 AM 45.2°F7.3°C 41.9°F5.5°C 88% 10.2 mph WSW16.4 kmh WSW 11.0 mph17.7 kmh 29.53 in1000.0 mb 0.00 in0.0 mm 0.00 in0.0 mm 0.00 in0.0 mm
07:14 AM 45.2°F7.3°C 41.9°F5.5°C 88% 8.7 mph WSW14.0 kmh WSW 10.0 mph16.1 kmh 29.53 in1000.0 mb 0.00 in0.0 mm 0.00 in0.0 mm 0.00 in0.0 mm
07:13 AM 45.2°F7.3°C 41.9°F5.5°C 88% 8.8 mph WSW14.2 kmh WSW 10.0 mph16.1 kmh 29.53 in1000.0 mb 0.00 in0.0 mm 0.00 in0.0 mm 0.00 in0.0 mm
07:12 AM 45.2°F7.3°C 41.9°F5.5°C 88% 8.8 mph WSW14.2 kmh WSW 10.0 mph16.1 kmh 29.53 in1000.0 mb 0.00 in0.0 mm 0.00 in0.0 mm 0.00 in0.0 mm
07:11 AM 45.3°F7.4°C 42.0°F5.6°C 88% 9.0 mph WSW14.5 kmh WSW 11.0 mph17.7 kmh 29.53 in1000.0 mb 0.00 in0.0 mm 0.00 in0.0 mm 0.00 in0.0 mm
07:10 AM 45.2°F7.3°C 41.9°F5.5°C 88% 9.0 mph WSW14.5 kmh WSW 12.0 mph19.3 kmh 29.53 in1000.0 mb 0.00 in0.0 mm 0.00 in0.0 mm 0.00 in0.0 mm
07:09 AM 45.3°F7.4°C 42.0°F5.6°C 88% 10.8 mph WSW17.4 kmh WSW 12.0 mph19.3 kmh 29.53 in1000.0 mb 0.00 in0.0 mm 0.00 in0.0 mm 0.00 in0.0 mm
07:08 AM 45.3°F7.4°C 42.0°F5.6°C 88% 9.4 mph WSW15.1 kmh WSW 12.0 mph19.3 kmh 29.53 in1000.0 mb 0.00 in0.0 mm 0.00 in0.0 mm 0.00 in0.0 mm
07:07 AM 45.4°F7.4°C 42.4°F5.8°C 89% 10.4 mph WSW16.7 kmh WSW 12.0 mph19.3 kmh 29.53 in1000.0 mb 0.00 in0.0 mm 0.00 in0.0 mm 0.00 in0.0 mm
07:06 AM 45.3°F7.4°C 42.3°F5.7°C 89% 8.2 mph WSW13.2 kmh WSW 11.0 mph17.7 kmh 29.53 in1000.0 mb 0.00 in0.0 mm 0.00 in0.0 mm 0.00 in0.0 mm
07:05 AM 45.2°F7.3°C 41.9°F5.5°C 88% 8.5 mph WSW13.7 kmh WSW 10.0 mph16.1 kmh 29.53 in1000.0 mb 0.00 in0.0 mm 0.00 in0.0 mm 0.00 in0.0 mm
07:04 AM 45.1°F7.3°C 41.8°F5.4°C 88% 8.6 mph WSW13.8 kmh WSW 10.0 mph16.1 kmh 29.53 in1000.0 mb 0.00 in0.0 mm 0.00 in0.0 mm 0.00 in0.0 mm
07:03 AM 45.1°F7.3°C 41.8°F5.4°C 88% 8.8 mph WSW14.2 kmh WSW 11.0 mph17.7 kmh 29.53 in1000.0 mb 0.00 in0.0 mm 0.00 in0.0 mm 0.00 in0.0 mm
07:02 AM 45.2°F7.3°C 41.9°F5.5°C 88% 10.0 mph WSW16.1 kmh WSW 12.0 mph19.3 kmh 29.53 in1000.0 mb 0.00 in0.0 mm 0.00 in0.0 mm 0.00 in0.0 mm
07:01 AM 45.3°F7.4°C 42.0°F5.6°C 88% 9.6 mph WSW15.4 kmh WSW 12.0 mph19.3 kmh 29.53 in1000.0 mb 0.00 in0.0 mm 0.00 in0.0 mm 0.00 in0.0 mm
07:00 AM 45.3°F7.4°C 42.0°F5.6°C 88% 8.2 mph WSW13.2 kmh WSW 10.0 mph16.1 kmh 29.53 in1000.0 mb 0.00 in0.0 mm 0.00 in0.0 mm 0.00 in0.0 mm
06:59 AM 45.3°F7.4°C 42.0°F5.6°C 88% 8.6 mph WSW13.8 kmh WSW 10.0 mph16.1 kmh 29.53 in1000.0 mb 0.00 in0.0 mm 0.00 in0.0 mm 0.00 in0.0 mm
06:58 AM 45.2°F7.3°C 41.9°F5.5°C 88% 8.0 mph WSW12.9 kmh WSW 11.0 mph17.7 kmh 29.53 in1000.0 mb 0.00 in0.0 mm 0.00 in0.0 mm 0.00 in0.0 mm
06:57 AM 45.3°F7.4°C 42.0°F5.6°C 88% 9.3 mph WSW15.0 kmh WSW 11.0 mph17.7 kmh 29.53 in1000.0 mb 0.00 in0.0 mm 0.00 in0.0 mm 0.00 in0.0 mm
06:56 AM 45.3°F7.4°C 42.0°F5.6°C 88% 7.7 mph WSW12.4 kmh WSW 11.0 mph17.7 kmh 29.53 in1000.0 mb 0.00 in0.0 mm 0.00 in0.0 mm 0.00 in0.0 mm
06:55 AM 45.3°F7.4°C 42.0°F5.6°C 88% 8.2 mph SW13.2 kmh SW 11.0 mph17.7 kmh 29.53 in1000.0 mb 0.00 in0.0 mm 0.00 in0.0 mm 0.00 in0.0 mm
06:54 AM 45.4°F7.4°C 42.1°F5.6°C 88% 7.8 mph WSW12.6 kmh WSW 10.0 mph16.1 kmh 29.53 in1000.0 mb 0.00 in0.0 mm 0.00 in0.0 mm 0.00 in0.0 mm
06:53 AM 45.3°F7.4°C 42.3°F5.7°C 89% 7.7 mph WSW12.4 kmh WSW 10.0 mph16.1 kmh 29.53 in1000.0 mb 0.00 in0.0 mm 0.00 in0.0 mm 0.00 in0.0 mm
06:52 AM 45.3°F7.4°C 42.3°F5.7°C 89% 7.3 mph WSW11.7 kmh WSW 10.0 mph16.1 kmh 29.53 in1000.0 mb 0.00 in0.0 mm 0.00 in0.0 mm 0.00 in0.0 mm
06:51 AM 45.3°F7.4°C 42.3°F5.7°C 89% 8.6 mph WSW13.8 kmh WSW 10.0 mph16.1 kmh 29.53 in1000.0 mb 0.00 in0.0 mm 0.00 in0.0 mm 0.00 in0.0 mm
06:50 AM 45.4°F7.4°C 42.4°F5.8°C 89% 6.8 mph WSW10.9 kmh WSW 10.0 mph16.1 kmh 29.53 in1000.0 mb 0.00 in0.0 mm 0.00 in0.0 mm 0.00 in0.0 mm
06:49 AM 45.2°F7.3°C 42.2°F5.7°C 89% 4.7 mph WSW7.6 kmh WSW 9.0 mph14.5 kmh 29.53 in1000.0 mb 0.00 in0.0 mm 0.00 in0.0 mm 0.00 in0.0 mm
06:48 AM 45.2°F7.3°C 42.2°F5.7°C 89% 6.2 mph WSW10.0 kmh WSW 9.0 mph14.5 kmh 29.53 in1000.0 mb 0.00 in0.0 mm 0.00 in0.0 mm 0.00 in0.0 mm
06:47 AM 45.2°F7.3°C 42.2°F5.7°C 89% 7.5 mph WSW12.1 kmh WSW 12.0 mph19.3 kmh 29.53 in1000.0 mb 0.00 in0.0 mm 0.00 in0.0 mm 0.00 in0.0 mm
06:46 AM 45.1°F7.3°C 42.1°F5.6°C 89% 9.6 mph WSW15.4 kmh WSW 12.0 mph19.3 kmh 29.53 in1000.0 mb 0.00 in0.0 mm 0.00 in0.0 mm 0.00 in0.0 mm
06:45 AM 45.1°F7.3°C 42.1°F5.6°C 89% 10.2 mph WSW16.4 kmh WSW 12.0 mph19.3 kmh 29.53 in1000.0 mb 0.00 in0.0 mm 0.00 in0.0 mm 0.00 in0.0 mm
06:44 AM 45.1°F7.3°C 42.1°F5.6°C 89% 7.6 mph WSW12.2 kmh WSW 11.0 mph17.7 kmh 29.53 in1000.0 mb 0.00 in0.0 mm 0.00 in0.0 mm 0.00 in0.0 mm
06:43 AM 45.0°F7.2°C 41.7°F5.4°C 88% 9.4 mph WSW15.1 kmh WSW 11.0 mph17.7 kmh 29.53 in1000.0 mb 0.00 in0.0 mm 0.00 in0.0 mm 0.00 in0.0 mm
06:42 AM 45.0°F7.2°C 41.7°F5.4°C 88% 9.9 mph WSW15.9 kmh WSW 12.0 mph19.3 kmh 29.53 in1000.0 mb 0.00 in0.0 mm 0.00 in0.0 mm 0.00 in0.0 mm
06:41 AM 45.0°F7.2°C 41.7°F5.4°C 88% 10.8 mph WSW17.4 kmh WSW 13.0 mph20.9 kmh 29.53 in1000.0 mb 0.00 in0.0 mm 0.00 in0.0 mm 0.00 in0.0 mm
06:40 AM 45.1°F7.3°C 42.1°F5.6°C 89% 11.3 mph WSW18.2 kmh WSW 13.0 mph20.9 kmh 29.53 in1000.0 mb 0.00 in0.0 mm 0.00 in0.0 mm 0.00 in0.0 mm
06:39 AM 45.1°F7.3°C 41.8°F5.4°C 88% 10.0 mph WSW16.1 kmh WSW 11.0 mph17.7 kmh 29.53 in1000.0 mb 0.00 in0.0 mm 0.00 in0.0 mm 0.00 in0.0 mm
06:38 AM 45.1°F7.3°C 41.8°F5.4°C 88% 8.9 mph WSW14.3 kmh WSW 12.0 mph19.3 kmh 29.53 in1000.0 mb 0.00 in0.0 mm 0.00 in0.0 mm 0.00 in0.0 mm
06:37 AM 45.1°F7.3°C 41.8°F5.4°C 88% 10.7 mph WSW17.2 kmh WSW 13.0 mph20.9 kmh 29.53 in1000.0 mb 0.00 in0.0 mm 0.00 in0.0 mm 0.00 in0.0 mm
06:36 AM 45.2°F7.3°C 42.2°F5.7°C 89% 10.2 mph WSW16.4 kmh WSW 13.0 mph20.9 kmh 29.53 in1000.0 mb 0.00 in0.0 mm 0.00 in0.0 mm 0.00 in0.0 mm
06:35 AM 45.1°F7.3°C 42.1°F5.6°C 89% 9.0 mph WSW14.5 kmh WSW 13.0 mph20.9 kmh 29.53 in1000.0 mb 0.00 in0.0 mm 0.00 in0.0 mm 0.00 in0.0 mm
06:34 AM 45.1°F7.3°C 42.1°F5.6°C 89% 11.1 mph WSW17.9 kmh WSW 13.0 mph20.9 kmh 29.53 in1000.0 mb 0.00 in0.0 mm 0.00 in0.0 mm 0.00 in0.0 mm
06:33 AM 45.1°F7.3°C 41.8°F5.4°C 88% 10.3 mph WSW16.6 kmh WSW 13.0 mph20.9 kmh 29.53 in1000.0 mb 0.00 in0.0 mm 0.00 in0.0 mm 0.00 in0.0 mm
06:32 AM 45.1°F7.3°C 42.1°F5.6°C 89% 12.0 mph WSW19.3 kmh WSW 13.0 mph20.9 kmh 29.53 in1000.0 mb 0.00 in0.0 mm 0.00 in0.0 mm 0.00 in0.0 mm
06:31 AM 45.1°F7.3°C 41.8°F5.4°C 88% 11.2 mph WSW18.0 kmh WSW 13.0 mph20.9 kmh 29.53 in1000.0 mb 0.00 in0.0 mm 0.00 in0.0 mm 0.00 in0.0 mm
06:30 AM 45.1°F7.3°C 42.1°F5.6°C 89% 11.2 mph WSW18.0 kmh WSW 13.0 mph20.9 kmh 29.53 in1000.0 mb 0.00 in0.0 mm 0.00 in0.0 mm 0.00 in0.0 mm
06:29 AM 45.2°F7.3°C 42.2°F5.7°C 89% 12.0 mph WSW19.3 kmh WSW 13.0 mph20.9 kmh 29.53 in1000.0 mb 0.00 in0.0 mm 0.00 in0.0 mm 0.00 in0.0 mm
06:28 AM 45.2°F7.3°C 42.2°F5.7°C 89% 11.4 mph WSW18.3 kmh WSW 13.0 mph20.9 kmh 29.53 in1000.0 mb 0.00 in0.0 mm 0.00 in0.0 mm 0.00 in0.0 mm
06:27 AM 45.2°F7.3°C 42.2°F5.7°C 89% 11.3 mph WSW18.2 kmh WSW 13.0 mph20.9 kmh 29.53 in1000.0 mb 0.00 in0.0 mm 0.00 in0.0 mm 0.00 in0.0 mm
06:26 AM 45.2°F7.3°C 42.2°F5.7°C 89% 10.2 mph WSW16.4 kmh WSW 13.0 mph20.9 kmh 29.53 in1000.0 mb 0.00 in0.0 mm 0.00 in0.0 mm 0.00 in0.0 mm
06:25 AM 45.2°F7.3°C 42.2°F5.7°C 89% 11.3 mph WSW18.2 kmh WSW 13.0 mph20.9 kmh 29.52 in999.7 mb 0.00 in0.0 mm 0.00 in0.0 mm 0.00 in0.0 mm
06:24 AM 45.2°F7.3°C 42.2°F5.7°C 89% 10.7 mph WSW17.2 kmh WSW 13.0 mph20.9 kmh 29.52 in999.7 mb 0.00 in0.0 mm 0.00 in0.0 mm 0.00 in0.0 mm
06:23 AM 45.2°F7.3°C 42.2°F5.7°C 89% 8.6 mph WSW13.8 kmh WSW 13.0 mph20.9 kmh 29.53 in1000.0 mb 0.00 in0.0 mm 0.00 in0.0 mm 0.00 in0.0 mm
06:22 AM 45.2°F7.3°C 42.2°F5.7°C 89% 11.3 mph WSW18.2 kmh WSW 13.0 mph20.9 kmh 29.52 in999.7 mb 0.00 in0.0 mm 0.00 in0.0 mm 0.00 in0.0 mm
06:21 AM 45.2°F7.3°C 42.2°F5.7°C 89% 10.7 mph WSW17.2 kmh WSW 13.0 mph20.9 kmh 29.52 in999.7 mb 0.00 in0.0 mm 0.00 in0.0 mm 0.00 in0.0 mm
06:20 AM 45.2°F7.3°C 42.2°F5.7°C 89% 11.1 mph WSW17.9 kmh WSW 12.0 mph19.3 kmh 29.52 in999.7 mb 0.00 in0.0 mm 0.00 in0.0 mm 0.00 in0.0 mm
06:19 AM 45.1°F7.3°C 42.1°F5.6°C 89% 9.8 mph WSW15.8 kmh WSW 13.0 mph20.9 kmh 29.53 in1000.0 mb 0.00 in0.0 mm 0.00 in0.0 mm 0.00 in0.0 mm
06:18 AM 45.1°F7.3°C 42.1°F5.6°C 89% 10.5 mph WSW16.9 kmh WSW 12.0 mph19.3 kmh 29.52 in999.7 mb 0.00 in0.0 mm 0.00 in0.0 mm 0.00 in0.0 mm
06:17 AM 45.1°F7.3°C 42.1°F5.6°C 89% 10.3 mph WSW16.6 kmh WSW 12.0 mph19.3 kmh 29.52 in999.7 mb 0.00 in0.0 mm 0.00 in0.0 mm 0.00 in0.0 mm
06:16 AM 45.1°F7.3°C 42.1°F5.6°C 89% 10.7 mph WSW17.2 kmh WSW 14.0 mph22.5 kmh 29.52 in999.7 mb 0.00 in0.0 mm 0.00 in0.0 mm 0.00 in0.0 mm
06:15 AM 45.1°F7.3°C 42.1°F5.6°C 89% 11.9 mph WSW19.2 kmh WSW 14.0 mph22.5 kmh 29.53 in1000.0 mb 0.00 in0.0 mm 0.00 in0.0 mm 0.00 in0.0 mm
06:14 AM 45.1°F7.3°C 42.1°F5.6°C 89% 8.2 mph WSW13.2 kmh WSW 12.0 mph19.3 kmh 29.53 in1000.0 mb 0.00 in0.0 mm 0.00 in0.0 mm 0.00 in0.0 mm
06:13 AM 45.1°F7.3°C 41.8°F5.4°C 88% 11.3 mph WSW18.2 kmh WSW 12.0 mph19.3 kmh 29.52 in999.7 mb 0.00 in0.0 mm 0.00 in0.0 mm 0.00 in0.0 mm
06:12 AM 45.1°F7.3°C 42.1°F5.6°C 89% 10.9 mph WSW17.5 kmh WSW 12.0 mph19.3 kmh 29.53 in1000.0 mb 0.00 in0.0 mm 0.00 in0.0 mm 0.00 in0.0 mm
06:11 AM 45.1°F7.3°C 41.8°F5.4°C 88% 8.8 mph WSW14.2 kmh WSW 12.0 mph19.3 kmh 29.53 in1000.0 mb 0.00 in0.0 mm 0.00 in0.0 mm 0.00 in0.0 mm
06:10 AM 45.1°F7.3°C 41.8°F5.4°C 88% 10.2 mph WSW16.4 kmh WSW 12.0 mph19.3 kmh 29.53 in1000.0 mb 0.00 in0.0 mm 0.00 in0.0 mm 0.00 in0.0 mm
06:09 AM 45.1°F7.3°C 42.1°F5.6°C 89% 10.0 mph WSW16.1 kmh WSW 12.0 mph19.3 kmh 29.53 in1000.0 mb 0.00 in0.0 mm 0.00 in0.0 mm 0.00 in0.0 mm
06:08 AM 45.2°F7.3°C 41.9°F5.5°C 88% 8.4 mph WSW13.5 kmh WSW 12.0 mph19.3 kmh 29.53 in1000.0 mb 0.00 in0.0 mm 0.00 in0.0 mm 0.00 in0.0 mm
06:07 AM 45.2°F7.3°C 41.9°F5.5°C 88% 9.9 mph WSW15.9 kmh WSW 12.0 mph19.3 kmh 29.53 in1000.0 mb 0.00 in0.0 mm 0.00 in0.0 mm 0.00 in0.0 mm
06:06 AM 45.2°F7.3°C 42.2°F5.7°C 89% 10.4 mph WSW16.7 kmh WSW 12.0 mph19.3 kmh 29.53 in1000.0 mb 0.00 in0.0 mm 0.00 in0.0 mm 0.00 in0.0 mm
06:05 AM 45.2°F7.3°C 42.2°F5.7°C 89% 9.2 mph WSW14.8 kmh WSW 12.0 mph19.3 kmh 29.53 in1000.0 mb 0.00 in0.0 mm 0.00 in0.0 mm 0.00 in0.0 mm
06:04 AM 45.2°F7.3°C 42.2°F5.7°C 89% 10.2 mph WSW16.4 kmh WSW 12.0 mph19.3 kmh 29.53 in1000.0 mb 0.00 in0.0 mm 0.00 in0.0 mm 0.00 in0.0 mm
06:03 AM 45.2°F7.3°C 42.2°F5.7°C 89% 8.7 mph WSW14.0 kmh WSW 11.0 mph17.7 kmh 29.53 in1000.0 mb 0.00 in0.0 mm 0.00 in0.0 mm 0.00 in0.0 mm
06:02 AM 45.2°F7.3°C 41.9°F5.5°C 88% 8.5 mph WSW13.7 kmh WSW 11.0 mph17.7 kmh 29.53 in1000.0 mb 0.00 in0.0 mm 0.00 in0.0 mm 0.00 in0.0 mm
06:01 AM 45.2°F7.3°C 42.2°F5.7°C 89% 10.1 mph WSW16.3 kmh WSW 11.0 mph17.7 kmh 29.53 in1000.0 mb 0.00 in0.0 mm 0.00 in0.0 mm 0.00 in0.0 mm
06:00 AM 45.2°F7.3°C 42.2°F5.7°C 89% 8.7 mph WSW14.0 kmh WSW 12.0 mph19.3 kmh 29.53 in1000.0 mb 0.00 in0.0 mm 0.00 in0.0 mm 0.00 in0.0 mm
05:59 AM 45.2°F7.3°C 42.2°F5.7°C 89% 9.9 mph WSW15.9 kmh WSW 13.0 mph20.9 kmh 29.53 in1000.0 mb 0.00 in0.0 mm 0.00 in0.0 mm 0.00 in0.0 mm
05:58 AM 45.2°F7.3°C 42.2°F5.7°C 89% 10.6 mph WSW17.1 kmh WSW 13.0 mph20.9 kmh 29.53 in1000.0 mb 0.00 in0.0 mm 0.00 in0.0 mm 0.00 in0.0 mm
05:57 AM 45.2°F7.3°C 42.2°F5.7°C 89% 11.2 mph WSW18.0 kmh WSW 13.0 mph20.9 kmh 29.53 in1000.0 mb 0.00 in0.0 mm 0.00 in0.0 mm 0.00 in0.0 mm
05:56 AM 45.2°F7.3°C 42.2°F5.7°C 89% 11.3 mph WSW18.2 kmh WSW 13.0 mph20.9 kmh 29.53 in1000.0 mb 0.00 in0.0 mm 0.00 in0.0 mm 0.00 in0.0 mm
05:55 AM 45.1°F7.3°C 41.8°F5.4°C 88% 10.9 mph WSW17.5 kmh WSW 13.0 mph20.9 kmh 29.53 in1000.0 mb 0.00 in0.0 mm 0.00 in0.0 mm 0.00 in0.0 mm
05:54 AM 45.2°F7.3°C 41.9°F5.5°C 88% 12.1 mph WSW19.5 kmh WSW 14.0 mph22.5 kmh 29.53 in1000.0 mb 0.00 in0.0 mm 0.00 in0.0 mm 0.00 in0.0 mm
05:53 AM 45.2°F7.3°C 42.2°F5.7°C 89% 13.4 mph WSW21.6 kmh WSW 14.0 mph22.5 kmh 29.53 in1000.0 mb 0.00 in0.0 mm 0.00 in0.0 mm 0.00 in0.0 mm
05:52 AM 45.2°F7.3°C 42.2°F5.7°C 89% 12.3 mph WSW19.8 kmh WSW 15.0 mph24.1 kmh 29.53 in1000.0 mb 0.00 in0.0 mm 0.00 in0.0 mm 0.00 in0.0 mm
05:51 AM 45.2°F7.3°C 42.2°F5.7°C 89% 12.3 mph WSW19.8 kmh WSW 15.0 mph24.1 kmh 29.53 in1000.0 mb 0.00 in0.0 mm 0.00 in0.0 mm 0.00 in0.0 mm
05:50 AM 45.2°F7.3°C 42.2°F5.7°C 89% 12.3 mph WSW19.8 kmh WSW 14.0 mph22.5 kmh 29.54 in1000.3 mb 0.00 in0.0 mm 0.00 in0.0 mm 0.00 in0.0 mm
05:49 AM 45.2°F7.3°C 42.2°F5.7°C 89% 10.8 mph WSW17.4 kmh WSW 14.0 mph22.5 kmh 29.54 in1000.3 mb 0.00 in0.0 mm 0.00 in0.0 mm 0.00 in0.0 mm
05:48 AM 45.2°F7.3°C 41.9°F5.5°C 88% 12.1 mph WSW19.5 kmh WSW 14.0 mph22.5 kmh 29.53 in1000.0 mb 0.00 in0.0 mm 0.00 in0.0 mm 0.00 in0.0 mm
05:47 AM 45.2°F7.3°C 42.2°F5.7°C 89% 13.1 mph WSW21.1 kmh WSW 14.0 mph22.5 kmh 29.54 in1000.3 mb 0.00 in0.0 mm 0.00 in0.0 mm 0.00 in0.0 mm
05:46 AM 45.2°F7.3°C 42.2°F5.7°C 89% 10.4 mph WSW16.7 kmh WSW 13.0 mph20.9 kmh 29.54 in1000.3 mb 0.00 in0.0 mm 0.00 in0.0 mm 0.00 in0.0 mm
05:45 AM 45.2°F7.3°C 41.9°F5.5°C 88% 11.1 mph WSW17.9 kmh WSW 14.0 mph22.5 kmh 29.54 in1000.3 mb 0.00 in0.0 mm 0.00 in0.0 mm 0.00 in0.0 mm
05:44 AM 45.2°F7.3°C 41.9°F5.5°C 88% 12.7 mph WSW20.4 kmh WSW 14.0 mph22.5 kmh 29.54 in1000.3 mb 0.00 in0.0 mm 0.00 in0.0 mm 0.00 in0.0 mm
05:43 AM 45.2°F7.3°C 41.9°F5.5°C 88% 12.4 mph WSW20.0 kmh WSW 14.0 mph22.5 kmh 29.54 in1000.3 mb 0.00 in0.0 mm 0.00 in0.0 mm 0.00 in0.0 mm
05:42 AM 45.2°F7.3°C 41.9°F5.5°C 88% 11.3 mph SW18.2 kmh SW 13.0 mph20.9 kmh 29.54 in1000.3 mb 0.00 in0.0 mm 0.00 in0.0 mm 0.00 in0.0 mm
05:41 AM 45.2°F7.3°C 41.9°F5.5°C 88% 10.3 mph WSW16.6 kmh WSW 14.0 mph22.5 kmh 29.54 in1000.3 mb 0.00 in0.0 mm 0.00 in0.0 mm 0.00 in0.0 mm
05:40 AM 45.2°F7.3°C 41.9°F5.5°C 88% 11.4 mph WSW18.3 kmh WSW 14.0 mph22.5 kmh 29.54 in1000.3 mb 0.00 in0.0 mm 0.00 in0.0 mm 0.00 in0.0 mm
05:39 AM 45.2°F7.3°C 42.2°F5.7°C 89% 11.3 mph WSW18.2 kmh WSW 13.0 mph20.9 kmh 29.54 in1000.3 mb 0.00 in0.0 mm 0.00 in0.0 mm 0.00 in0.0 mm
05:38 AM 45.2°F7.3°C 42.2°F5.7°C 89% 10.6 mph WSW17.1 kmh WSW 13.0 mph20.9 kmh 29.54 in1000.3 mb 0.00 in0.0 mm 0.00 in0.0 mm 0.00 in0.0 mm
05:37 AM 45.1°F7.3°C 42.1°F5.6°C 89% 9.0 mph WSW14.5 kmh WSW 12.0 mph19.3 kmh 29.54 in1000.3 mb 0.00 in0.0 mm 0.00 in0.0 mm 0.00 in0.0 mm
05:36 AM 45.2°F7.3°C 41.9°F5.5°C 88% 10.9 mph WSW17.5 kmh WSW 12.0 mph19.3 kmh 29.54 in1000.3 mb 0.00 in0.0 mm 0.00 in0.0 mm 0.00 in0.0 mm
05:35 AM 45.2°F7.3°C 41.9°F5.5°C 88% 10.5 mph WSW16.9 kmh WSW 12.0 mph19.3 kmh 29.54 in1000.3 mb 0.00 in0.0 mm 0.00 in0.0 mm 0.00 in0.0 mm
05:34 AM 45.1°F7.3°C 41.8°F5.4°C 88% 10.7 mph WSW17.2 kmh WSW 12.0 mph19.3 kmh 29.54 in1000.3 mb 0.00 in0.0 mm 0.00 in0.0 mm 0.00 in0.0 mm
05:33 AM 45.0°F7.2°C 41.7°F5.4°C 88% 10.4 mph SW16.7 kmh SW 12.0 mph19.3 kmh 29.54 in1000.3 mb 0.00 in0.0 mm 0.00 in0.0 mm 0.00 in0.0 mm
05:32 AM 45.0°F7.2°C 41.7°F5.4°C 88% 10.2 mph SW16.4 kmh SW 13.0 mph20.9 kmh 29.54 in1000.3 mb 0.00 in0.0 mm 0.00 in0.0 mm 0.00 in0.0 mm
05:31 AM 44.9°F7.2°C 41.6°F5.3°C 88% 11.7 mph SW18.8 kmh SW 14.0 mph22.5 kmh 29.54 in1000.3 mb 0.00 in0.0 mm 0.00 in0.0 mm 0.00 in0.0 mm
05:30 AM 45.0°F7.2°C 41.7°F5.4°C 88% 12.2 mph SW19.6 kmh SW 16.0 mph25.7 kmh 29.54 in1000.3 mb 0.00 in0.0 mm 0.00 in0.0 mm 0.00 in0.0 mm
05:29 AM 45.0°F7.2°C 41.7°F5.4°C 88% 13.4 mph SW21.6 kmh SW 16.0 mph25.7 kmh 29.54 in1000.3 mb 0.00 in0.0 mm 0.00 in0.0 mm 0.00 in0.0 mm
05:28 AM 45.1°F7.3°C 42.1°F5.6°C 89% 11.3 mph SW18.2 kmh SW 15.0 mph24.1 kmh 29.54 in1000.3 mb 0.00 in0.0 mm 0.00 in0.0 mm 0.00 in0.0 mm
05:27 AM 45.1°F7.3°C 42.1°F5.6°C 89% 11.3 mph SW18.2 kmh SW 13.0 mph20.9 kmh 29.54 in1000.3 mb 0.00 in0.0 mm 0.00 in0.0 mm 0.00 in0.0 mm
05:26 AM 45.1°F7.3°C 42.1°F5.6°C 89% 9.5 mph WSW15.3 kmh WSW 12.0 mph19.3 kmh 29.54 in1000.3 mb 0.00 in0.0 mm 0.00 in0.0 mm 0.00 in0.0 mm
05:25 AM 45.1°F7.3°C 42.1°F5.6°C 89% 9.0 mph WSW14.5 kmh WSW 12.0 mph19.3 kmh 29.54 in1000.3 mb 0.00 in0.0 mm 0.00 in0.0 mm 0.00 in0.0 mm
05:24 AM 45.0°F7.2°C 42.0°F5.6°C 89% 10.2 mph WSW16.4 kmh WSW 12.0 mph19.3 kmh 29.54 in1000.3 mb 0.00 in0.0 mm 0.00 in0.0 mm 0.00 in0.0 mm
05:23 AM 45.0°F7.2°C 42.0°F5.6°C 89% 9.4 mph WSW15.1 kmh WSW 13.0 mph20.9 kmh 29.54 in1000.3 mb 0.00 in0.0 mm 0.00 in0.0 mm 0.00 in0.0 mm
05:22 AM 44.9°F7.2°C 41.9°F5.5°C 89% 10.9 mph WSW17.5 kmh WSW 14.0 mph22.5 kmh 29.54 in1000.3 mb 0.00 in0.0 mm 0.00 in0.0 mm 0.00 in0.0 mm
05:21 AM 44.9°F7.2°C 41.6°F5.3°C 88% 10.0 mph WSW16.1 kmh WSW 14.0 mph22.5 kmh 29.54 in1000.3 mb 0.00 in0.0 mm 0.00 in0.0 mm 0.00 in0.0 mm
05:20 AM 44.9°F7.2°C 41.6°F5.3°C 88% 10.5 mph WSW16.9 kmh WSW 12.0 mph19.3 kmh 29.54 in1000.3 mb 0.00 in0.0 mm 0.00 in0.0 mm 0.00 in0.0 mm
05:19 AM 44.9°F7.2°C 41.6°F5.3°C 88% 11.1 mph WSW17.9 kmh WSW 12.0 mph19.3 kmh 29.54 in1000.3 mb 0.00 in0.0 mm 0.00 in0.0 mm 0.00 in0.0 mm
05:18 AM 44.8°F7.1°C 41.5°F5.3°C 88% 9.9 mph WSW15.9 kmh WSW 12.0 mph19.3 kmh 29.54 in1000.3 mb 0.00 in0.0 mm 0.00 in0.0 mm 0.00 in0.0 mm
05:17 AM 44.9°F7.2°C 41.6°F5.3°C 88% 10.5 mph WSW16.9 kmh WSW 12.0 mph19.3 kmh 29.54 in1000.3 mb 0.00 in0.0 mm 0.00 in0.0 mm 0.00 in0.0 mm
05:16 AM 44.9°F7.2°C 41.6°F5.3°C 88% 10.5 mph WSW16.9 kmh WSW 12.0 mph19.3 kmh 29.54 in1000.3 mb 0.00 in0.0 mm 0.00 in0.0 mm 0.00 in0.0 mm
05:15 AM 44.9°F7.2°C 41.6°F5.3°C 88% 8.9 mph WSW14.3 kmh WSW 12.0 mph19.3 kmh 29.54 in1000.3 mb 0.00 in0.0 mm 0.00 in0.0 mm 0.00 in0.0 mm
05:14 AM 44.8°F7.1°C 41.5°F5.3°C 88% 10.2 mph WSW16.4 kmh WSW 12.0 mph19.3 kmh 29.54 in1000.3 mb 0.00 in0.0 mm 0.00 in0.0 mm 0.00 in0.0 mm
05:13 AM 44.7°F7.1°C 41.4°F5.2°C 88% 10.2 mph WSW16.4 kmh WSW 13.0 mph20.9 kmh 29.54 in1000.3 mb 0.00 in0.0 mm 0.00 in0.0 mm 0.00 in0.0 mm
05:12 AM 44.8°F7.1°C 41.5°F5.3°C 88% 11.8 mph WSW19.0 kmh WSW 13.0 mph20.9 kmh 29.54 in1000.3 mb 0.00 in0.0 mm 0.00 in0.0 mm 0.00 in0.0 mm
05:11 AM 44.8°F7.1°C 41.5°F5.3°C 88% 10.7 mph WSW17.2 kmh WSW 13.0 mph20.9 kmh 29.54 in1000.3 mb 0.00 in0.0 mm 0.00 in0.0 mm 0.00 in0.0 mm
05:10 AM 44.8°F7.1°C 41.5°F5.3°C 88% 10.4 mph WSW16.7 kmh WSW 12.0 mph19.3 kmh 29.54 in1000.3 mb 0.00 in0.0 mm 0.00 in0.0 mm 0.00 in0.0 mm
05:09 AM 44.8°F7.1°C 41.5°F5.3°C 88% 10.1 mph WSW16.3 kmh WSW 13.0 mph20.9 kmh 29.54 in1000.3 mb 0.00 in0.0 mm 0.00 in0.0 mm 0.00 in0.0 mm
05:08 AM 44.9°F7.2°C 41.6°F5.3°C 88% 11.3 mph WSW18.2 kmh WSW 13.0 mph20.9 kmh 29.54 in1000.3 mb 0.00 in0.0 mm 0.00 in0.0 mm 0.00 in0.0 mm
05:07 AM 44.9°F7.2°C 41.6°F5.3°C 88% 10.8 mph WSW17.4 kmh WSW 12.0 mph19.3 kmh 29.54 in1000.3 mb 0.00 in0.0 mm 0.00 in0.0 mm 0.00 in0.0 mm
05:06 AM 44.9°F7.2°C 41.6°F5.3°C 88% 9.7 mph WSW15.6 kmh WSW 11.0 mph17.7 kmh 29.54 in1000.3 mb 0.00 in0.0 mm 0.00 in0.0 mm 0.00 in0.0 mm
05:05 AM 44.9°F7.2°C 41.6°F5.3°C 88% 9.2 mph WSW14.8 kmh WSW 11.0 mph17.7 kmh 29.54 in1000.3 mb 0.00 in0.0 mm 0.00 in0.0 mm 0.00 in0.0 mm
05:04 AM 45.0°F7.2°C 41.7°F5.4°C 88% 9.5 mph WSW15.3 kmh WSW 12.0 mph19.3 kmh 29.54 in1000.3 mb 0.00 in0.0 mm 0.00 in0.0 mm 0.00 in0.0 mm
05:03 AM 44.9°F7.2°C 41.6°F5.3°C 88% 10.5 mph WSW16.9 kmh WSW 12.0 mph19.3 kmh 29.54 in1000.3 mb 0.00 in0.0 mm 0.00 in0.0 mm 0.00 in0.0 mm
05:02 AM 44.9°F7.2°C 41.6°F5.3°C 88% 10.7 mph WSW17.2 kmh WSW 12.0 mph19.3 kmh 29.54 in1000.3 mb 0.00 in0.0 mm 0.00 in0.0 mm 0.00 in0.0 mm
05:01 AM 44.9°F7.2°C 41.6°F5.3°C 88% 10.2 mph WSW16.4 kmh WSW 12.0 mph19.3 kmh 29.54 in1000.3 mb 0.00 in0.0 mm 0.00 in0.0 mm 0.00 in0.0 mm
05:00 AM 44.9°F7.2°C 41.6°F5.3°C 88% 10.1 mph WSW16.3 kmh WSW 12.0 mph19.3 kmh 29.54 in1000.3 mb 0.00 in0.0 mm 0.00 in0.0 mm 0.00 in0.0 mm
04:59 AM 45.0°F7.2°C 41.7°F5.4°C 88% 9.6 mph WSW15.4 kmh WSW 11.0 mph17.7 kmh 29.54 in1000.3 mb 0.00 in0.0 mm 0.00 in0.0 mm 0.00 in0.0 mm
04:58 AM 45.1°F7.3°C 41.8°F5.4°C 88% 9.8 mph W15.8 kmh W 11.0 mph17.7 kmh 29.54 in1000.3 mb 0.00 in0.0 mm 0.00 in0.0 mm 0.00 in0.0 mm
04:57 AM 45.1°F7.3°C 41.8°F5.4°C 88% 9.4 mph WSW15.1 kmh WSW 12.0 mph19.3 kmh 29.54 in1000.3 mb 0.00 in0.0 mm 0.00 in0.0 mm 0.00 in0.0 mm
04:56 AM 45.1°F7.3°C 41.8°F5.4°C 88% 10.1 mph WSW16.3 kmh WSW 12.0 mph19.3 kmh 29.54 in1000.3 mb 0.00 in0.0 mm 0.00 in0.0 mm 0.00 in0.0 mm
04:55 AM 45.2°F7.3°C 41.9°F5.5°C 88% 10.5 mph WSW16.9 kmh WSW 12.0 mph19.3 kmh 29.54 in1000.3 mb 0.00 in0.0 mm 0.00 in0.0 mm 0.00 in0.0 mm
04:54 AM 45.3°F7.4°C 42.0°F5.6°C 88% 9.3 mph WSW15.0 kmh WSW 11.0 mph17.7 kmh 29.54 in1000.3 mb 0.00 in0.0 mm 0.00 in0.0 mm 0.00 in0.0 mm
04:53 AM 45.3°F7.4°C 42.0°F5.6°C 88% 8.8 mph WSW14.2 kmh WSW 11.0 mph17.7 kmh 29.54 in1000.3 mb 0.00 in0.0 mm 0.00 in0.0 mm 0.00 in0.0 mm
04:52 AM 45.3°F7.4°C 42.0°F5.6°C 88% 9.3 mph WSW15.0 kmh WSW 11.0 mph17.7 kmh 29.54 in1000.3 mb 0.00 in0.0 mm 0.00 in0.0 mm 0.00 in0.0 mm
04:51 AM 45.3°F7.4°C 42.0°F5.6°C 88% 7.8 mph WSW12.6 kmh WSW 10.0 mph16.1 kmh 29.54 in1000.3 mb 0.00 in0.0 mm 0.00 in0.0 mm 0.00 in0.0 mm
04:50 AM 45.2°F7.3°C 41.9°F5.5°C 88% 8.1 mph WSW13.0 kmh WSW 12.0 mph19.3 kmh 29.54 in1000.3 mb 0.00 in0.0 mm 0.00 in0.0 mm 0.00 in0.0 mm
04:49 AM 45.2°F7.3°C 41.9°F5.5°C 88% 9.8 mph WSW15.8 kmh WSW 13.0 mph20.9 kmh 29.55 in1000.7 mb 0.00 in0.0 mm 0.00 in0.0 mm 0.00 in0.0 mm
04:48 AM 45.2°F7.3°C 41.9°F5.5°C 88% 9.9 mph WSW15.9 kmh WSW 13.0 mph20.9 kmh 29.55 in1000.7 mb 0.00 in0.0 mm 0.00 in0.0 mm 0.00 in0.0 mm
04:47 AM 45.2°F7.3°C 41.9°F5.5°C 88% 11.1 mph WSW17.9 kmh WSW 13.0 mph20.9 kmh 29.55 in1000.7 mb 0.00 in0.0 mm 0.00 in0.0 mm 0.00 in0.0 mm
04:46 AM 45.3°F7.4°C 42.0°F5.6°C 88% 12.2 mph WSW19.6 kmh WSW 13.0 mph20.9 kmh 29.54 in1000.3 mb 0.00 in0.0 mm 0.00 in0.0 mm 0.00 in0.0 mm
04:45 AM 45.2°F7.3°C 41.9°F5.5°C 88% 9.3 mph WSW15.0 kmh WSW 13.0 mph20.9 kmh 29.55 in1000.7 mb 0.00 in0.0 mm 0.00 in0.0 mm 0.00 in0.0 mm
04:44 AM 45.2°F7.3°C 41.9°F5.5°C 88% 9.9 mph WSW15.9 kmh WSW 14.0 mph22.5 kmh 29.55 in1000.7 mb 0.00 in0.0 mm 0.00 in0.0 mm 0.00 in0.0 mm
04:43 AM 45.2°F7.3°C 41.9°F5.5°C 88% 12.7 mph WSW20.4 kmh WSW 14.0 mph22.5 kmh 29.55 in1000.7 mb 0.00 in0.0 mm 0.00 in0.0 mm 0.00 in0.0 mm
04:42 AM 45.2°F7.3°C 41.9°F5.5°C 88% 11.6 mph WSW18.7 kmh WSW 14.0 mph22.5 kmh 29.55 in1000.7 mb 0.00 in0.0 mm 0.00 in0.0 mm 0.00 in0.0 mm
04:41 AM 45.2°F7.3°C 41.9°F5.5°C 88% 12.4 mph WSW20.0 kmh WSW 14.0 mph22.5 kmh 29.55 in1000.7 mb 0.00 in0.0 mm 0.00 in0.0 mm 0.00 in0.0 mm
04:40 AM 45.2°F7.3°C 41.9°F5.5°C 88% 10.8 mph WSW17.4 kmh WSW 13.0 mph20.9 kmh 29.55 in1000.7 mb 0.00 in0.0 mm 0.00 in0.0 mm 0.00 in0.0 mm
04:39 AM 45.1°F7.3°C 41.8°F5.4°C 88% 8.5 mph WSW13.7 kmh WSW 12.0 mph19.3 kmh 29.55 in1000.7 mb 0.00 in0.0 mm 0.00 in0.0 mm 0.00 in0.0 mm
04:38 AM 45.1°F7.3°C 41.8°F5.4°C 88% 9.0 mph WSW14.5 kmh WSW 15.0 mph24.1 kmh 29.55 in1000.7 mb 0.00 in0.0 mm 0.00 in0.0 mm 0.00 in0.0 mm
04:37 AM 45.1°F7.3°C 41.8°F5.4°C 88% 11.0 mph WSW17.7 kmh WSW 15.0 mph24.1 kmh 29.55 in1000.7 mb 0.00 in0.0 mm 0.00 in0.0 mm 0.00 in0.0 mm
04:36 AM 45.1°F7.3°C 41.8°F5.4°C 88% 10.7 mph WSW17.2 kmh WSW 14.0 mph22.5 kmh 29.55 in1000.7 mb 0.00 in0.0 mm 0.00 in0.0 mm 0.00 in0.0 mm
04:35 AM 45.1°F7.3°C 41.5°F5.3°C 87% 11.9 mph WSW19.2 kmh WSW 14.0 mph22.5 kmh 29.55 in1000.7 mb 0.00 in0.0 mm 0.00 in0.0 mm 0.00 in0.0 mm
04:34 AM 45.2°F7.3°C 41.9°F5.5°C 88% 11.1 mph WSW17.9 kmh WSW 13.0 mph20.9 kmh 29.55 in1000.7 mb 0.00 in0.0 mm 0.00 in0.0 mm 0.00 in0.0 mm
04:33 AM 45.2°F7.3°C 41.9°F5.5°C 88% 11.8 mph WSW19.0 kmh WSW 13.0 mph20.9 kmh 29.55 in1000.7 mb 0.00 in0.0 mm 0.00 in0.0 mm 0.00 in0.0 mm
04:32 AM 45.2°F7.3°C 41.9°F5.5°C 88% 10.7 mph WSW17.2 kmh WSW 13.0 mph20.9 kmh 29.55 in1000.7 mb 0.00 in0.0 mm 0.00 in0.0 mm 0.00 in0.0 mm
04:31 AM 45.2°F7.3°C 41.9°F5.5°C 88% 11.5 mph WSW18.5 kmh WSW 13.0 mph20.9 kmh 29.55 in1000.7 mb 0.00 in0.0 mm 0.00 in0.0 mm 0.00 in0.0 mm
04:30 AM 45.2°F7.3°C 41.9°F5.5°C 88% 10.2 mph WSW16.4 kmh WSW 13.0 mph20.9 kmh 29.55 in1000.7 mb 0.00 in0.0 mm 0.00 in0.0 mm 0.00 in0.0 mm
04:29 AM 45.2°F7.3°C 41.9°F5.5°C 88% 11.2 mph WSW18.0 kmh WSW 15.0 mph24.1 kmh 29.55 in1000.7 mb 0.00 in0.0 mm 0.00 in0.0 mm 0.00 in0.0 mm
04:28 AM 45.2°F7.3°C 41.9°F5.5°C 88% 11.4 mph WSW18.3 kmh WSW 15.0 mph24.1 kmh 29.55 in1000.7 mb 0.00 in0.0 mm 0.00 in0.0 mm 0.00 in0.0 mm
04:27 AM 45.2°F7.3°C 41.9°F5.5°C 88% 11.4 mph WSW18.3 kmh WSW 14.0 mph22.5 kmh 29.55 in1000.7 mb 0.00 in0.0 mm 0.00 in0.0 mm 0.00 in0.0 mm
04:26 AM 45.2°F7.3°C 41.9°F5.5°C 88% 10.4 mph WSW16.7 kmh WSW 12.0 mph19.3 kmh 29.55 in1000.7 mb 0.00 in0.0 mm 0.00 in0.0 mm 0.00 in0.0 mm
04:25 AM 45.2°F7.3°C 41.9°F5.5°C 88% 10.0 mph WSW16.1 kmh WSW 12.0 mph19.3 kmh 29.55 in1000.7 mb 0.00 in0.0 mm 0.00 in0.0 mm 0.00 in0.0 mm
04:24 AM 45.1°F7.3°C 41.5°F5.3°C 87% 9.7 mph WSW15.6 kmh WSW 12.0 mph19.3 kmh 29.55 in1000.7 mb 0.00 in0.0 mm 0.00 in0.0 mm 0.00 in0.0 mm
04:23 AM 45.1°F7.3°C 41.5°F5.3°C 87% 11.4 mph WSW18.3 kmh WSW 12.0 mph19.3 kmh 29.55 in1000.7 mb 0.00 in0.0 mm 0.00 in0.0 mm 0.00 in0.0 mm
04:22 AM 45.1°F7.3°C 41.5°F5.3°C 87% 11.1 mph WSW17.9 kmh WSW 13.0 mph20.9 kmh 29.55 in1000.7 mb 0.00 in0.0 mm 0.00 in0.0 mm 0.00 in0.0 mm
04:21 AM 45.1°F7.3°C 41.8°F5.4°C 88% 11.5 mph WSW18.5 kmh WSW 13.0 mph20.9 kmh 29.55 in1000.7 mb 0.00 in0.0 mm 0.00 in0.0 mm 0.00 in0.0 mm
04:20 AM 45.1°F7.3°C 41.5°F5.3°C 87% 10.2 mph WSW16.4 kmh WSW 12.0 mph19.3 kmh 29.55 in1000.7 mb 0.00 in0.0 mm 0.00 in0.0 mm 0.00 in0.0 mm
04:19 AM 45.1°F7.3°C 41.8°F5.4°C 88% 10.9 mph WSW17.5 kmh WSW 13.0 mph20.9 kmh 29.55 in1000.7 mb 0.00 in0.0 mm 0.00 in0.0 mm 0.00 in0.0 mm
04:18 AM 45.2°F7.3°C 41.9°F5.5°C 88% 12.0 mph WSW19.3 kmh WSW 14.0 mph22.5 kmh 29.55 in1000.7 mb 0.00 in0.0 mm 0.00 in0.0 mm 0.00 in0.0 mm
04:17 AM 45.2°F7.3°C 41.9°F5.5°C 88% 12.1 mph WSW19.5 kmh WSW 14.0 mph22.5 kmh 29.55 in1000.7 mb 0.00 in0.0 mm 0.00 in0.0 mm 0.00 in0.0 mm
04:16 AM 45.2°F7.3°C 41.9°F5.5°C 88% 12.2 mph WSW19.6 kmh WSW 13.0 mph20.9 kmh 29.55 in1000.7 mb 0.00 in0.0 mm 0.00 in0.0 mm 0.00 in0.0 mm
04:15 AM 45.2°F7.3°C 41.9°F5.5°C 88% 10.3 mph WSW16.6 kmh WSW 12.0 mph19.3 kmh 29.55 in1000.7 mb 0.00 in0.0 mm 0.00 in0.0 mm 0.00 in0.0 mm
04:14 AM 45.2°F7.3°C 41.6°F5.3°C 87% 9.6 mph WSW15.4 kmh WSW 13.0 mph20.9 kmh 29.55 in1000.7 mb 0.00 in0.0 mm 0.00 in0.0 mm 0.00 in0.0 mm
04:13 AM 45.1°F7.3°C 41.5°F5.3°C 87% 11.9 mph WSW19.2 kmh WSW 14.0 mph22.5 kmh 29.55 in1000.7 mb 0.00 in0.0 mm 0.00 in0.0 mm 0.00 in0.0 mm
04:12 AM 45.2°F7.3°C 41.6°F5.3°C 87% 12.3 mph WSW19.8 kmh WSW 15.0 mph24.1 kmh 29.56 in1001.0 mb 0.00 in0.0 mm 0.00 in0.0 mm 0.00 in0.0 mm
04:11 AM 45.2°F7.3°C 41.9°F5.5°C 88% 13.2 mph WSW21.2 kmh WSW 15.0 mph24.1 kmh 29.56 in1001.0 mb 0.00 in0.0 mm 0.00 in0.0 mm 0.00 in0.0 mm
04:10 AM 45.3°F7.4°C 42.0°F5.6°C 88% 11.7 mph WSW18.8 kmh WSW 14.0 mph22.5 kmh 29.56 in1001.0 mb 0.00 in0.0 mm 0.00 in0.0 mm 0.00 in0.0 mm
04:09 AM 45.2°F7.3°C 41.9°F5.5°C 88% 10.0 mph WSW16.1 kmh WSW 13.0 mph20.9 kmh 29.56 in1001.0 mb 0.00 in0.0 mm 0.00 in0.0 mm 0.00 in0.0 mm
04:08 AM 45.2°F7.3°C 41.9°F5.5°C 88% 10.3 mph WSW16.6 kmh WSW 13.0 mph20.9 kmh 29.56 in1001.0 mb 0.00 in0.0 mm 0.00 in0.0 mm 0.00 in0.0 mm
04:07 AM 45.2°F7.3°C 41.9°F5.5°C 88% 11.3 mph WSW18.2 kmh WSW 13.0 mph20.9 kmh 29.56 in1001.0 mb 0.00 in0.0 mm 0.00 in0.0 mm 0.00 in0.0 mm
04:06 AM 45.2°F7.3°C 41.9°F5.5°C 88% 10.7 mph WSW17.2 kmh WSW 14.0 mph22.5 kmh 29.56 in1001.0 mb 0.00 in0.0 mm 0.00 in0.0 mm 0.00 in0.0 mm
04:05 AM 45.2°F7.3°C 41.9°F5.5°C 88% 12.1 mph WSW19.5 kmh WSW 14.0 mph22.5 kmh 29.56 in1001.0 mb 0.00 in0.0 mm 0.00 in0.0 mm 0.00 in0.0 mm
04:04 AM 45.2°F7.3°C 41.9°F5.5°C 88% 10.7 mph WSW17.2 kmh WSW 13.0 mph20.9 kmh 29.56 in1001.0 mb 0.00 in0.0 mm 0.00 in0.0 mm 0.00 in0.0 mm
04:03 AM 45.2°F7.3°C 41.9°F5.5°C 88% 10.7 mph WSW17.2 kmh WSW 14.0 mph22.5 kmh 29.56 in1001.0 mb 0.00 in0.0 mm 0.00 in0.0 mm 0.00 in0.0 mm
04:02 AM 45.3°F7.4°C 42.0°F5.6°C 88% 11.6 mph WSW18.7 kmh WSW 14.0 mph22.5 kmh 29.56 in1001.0 mb 0.00 in0.0 mm 0.00 in0.0 mm 0.00 in0.0 mm
04:01 AM 45.3°F7.4°C 42.0°F5.6°C 88% 11.0 mph WSW17.7 kmh WSW 13.0 mph20.9 kmh 29.56 in1001.0 mb 0.00 in0.0 mm 0.00 in0.0 mm 0.00 in0.0 mm
04:00 AM 45.2°F7.3°C 41.9°F5.5°C 88% 11.0 mph WSW17.7 kmh WSW 13.0 mph20.9 kmh 29.56 in1001.0 mb 0.00 in0.0 mm 0.00 in0.0 mm 0.00 in0.0 mm
03:59 AM 45.2°F7.3°C 41.9°F5.5°C 88% 11.0 mph WSW17.7 kmh WSW 12.0 mph19.3 kmh 29.56 in1001.0 mb 0.00 in0.0 mm 0.00 in0.0 mm 0.00 in0.0 mm
03:58 AM 45.2°F7.3°C 41.9°F5.5°C 88% 10.4 mph WSW16.7 kmh WSW 11.0 mph17.7 kmh 29.56 in1001.0 mb 0.00 in0.0 mm 0.00 in0.0 mm 0.00 in0.0 mm
03:57 AM 45.3°F7.4°C 42.0°F5.6°C 88% 10.3 mph WSW16.6 kmh WSW 11.0 mph17.7 kmh 29.56 in1001.0 mb 0.00 in0.0 mm 0.00 in0.0 mm 0.00 in0.0 mm
03:56 AM 45.4°F7.4°C 42.1°F5.6°C 88% 9.1 mph WSW14.6 kmh WSW 11.0 mph17.7 kmh 29.56 in1001.0 mb 0.00 in0.0 mm 0.00 in0.0 mm 0.00 in0.0 mm
03:55 AM 45.3°F7.4°C 42.0°F5.6°C 88% 8.9 mph WSW14.3 kmh WSW 11.0 mph17.7 kmh 29.56 in1001.0 mb 0.00 in0.0 mm 0.00 in0.0 mm 0.00 in0.0 mm
03:54 AM 45.4°F7.4°C 42.1°F5.6°C 88% 9.4 mph WSW15.1 kmh WSW 11.0 mph17.7 kmh 29.56 in1001.0 mb 0.00 in0.0 mm 0.00 in0.0 mm 0.00 in0.0 mm
03:53 AM 45.3°F7.4°C 42.0°F5.6°C 88% 9.6 mph WSW15.4 kmh WSW 11.0 mph17.7 kmh 29.56 in1001.0 mb 0.00 in0.0 mm 0.00 in0.0 mm 0.00 in0.0 mm
03:52 AM 45.3°F7.4°C 42.0°F5.6°C 88% 8.8 mph WSW14.2 kmh WSW 10.0 mph16.1 kmh 29.56 in1001.0 mb 0.00 in0.0 mm 0.00 in0.0 mm 0.00 in0.0 mm
03:51 AM 45.3°F7.4°C 42.0°F5.6°C 88% 8.6 mph WSW13.8 kmh WSW 13.0 mph20.9 kmh 29.56 in1001.0 mb 0.00 in0.0 mm 0.00 in0.0 mm 0.00 in0.0 mm
03:50 AM 45.2°F7.3°C 41.9°F5.5°C 88% 10.8 mph WSW17.4 kmh WSW 13.0 mph20.9 kmh 29.56 in1001.0 mb 0.00 in0.0 mm 0.00 in0.0 mm 0.00 in0.0 mm
03:49 AM 45.3°F7.4°C 42.0°F5.6°C 88% 9.6 mph WSW15.4 kmh WSW 12.0 mph19.3 kmh 29.56 in1001.0 mb 0.00 in0.0 mm 0.00 in0.0 mm 0.00 in0.0 mm
03:48 AM 45.2°F7.3°C 41.9°F5.5°C 88% 8.9 mph WSW14.3 kmh WSW 12.0 mph19.3 kmh 29.56 in1001.0 mb 0.00 in0.0 mm 0.00 in0.0 mm 0.00 in0.0 mm
03:47 AM 45.2°F7.3°C 41.9°F5.5°C 88% 10.7 mph WSW17.2 kmh WSW 12.0 mph19.3 kmh 29.56 in1001.0 mb 0.00 in0.0 mm 0.00 in0.0 mm 0.00 in0.0 mm
03:46 AM 45.2°F7.3°C 41.9°F5.5°C 88% 9.4 mph WSW15.1 kmh WSW 12.0 mph19.3 kmh 29.56 in1001.0 mb 0.00 in0.0 mm 0.00 in0.0 mm 0.00 in0.0 mm
03:45 AM 45.2°F7.3°C 41.9°F5.5°C 88% 10.3 mph WSW16.6 kmh WSW 12.0 mph19.3 kmh 29.56 in1001.0 mb 0.00 in0.0 mm 0.00 in0.0 mm 0.00 in0.0 mm
03:44 AM 45.2°F7.3°C 41.9°F5.5°C 88% 10.1 mph WSW16.3 kmh WSW 13.0 mph20.9 kmh 29.57 in1001.4 mb 0.00 in0.0 mm 0.00 in0.0 mm 0.00 in0.0 mm
03:43 AM 45.1°F7.3°C 41.8°F5.4°C 88% 11.4 mph WSW18.3 kmh WSW 13.0 mph20.9 kmh 29.57 in1001.4 mb 0.00 in0.0 mm 0.00 in0.0 mm 0.00 in0.0 mm
03:42 AM 45.1°F7.3°C 41.8°F5.4°C 88% 11.0 mph WSW17.7 kmh WSW 12.0 mph19.3 kmh 29.57 in1001.4 mb 0.00 in0.0 mm 0.00 in0.0 mm 0.00 in0.0 mm
03:41 AM 45.2°F7.3°C 41.9°F5.5°C 88% 11.0 mph WSW17.7 kmh WSW 12.0 mph19.3 kmh 29.57 in1001.4 mb 0.00 in0.0 mm 0.00 in0.0 mm 0.00 in0.0 mm
03:40 AM 45.2°F7.3°C 41.9°F5.5°C 88% 11.2 mph WSW18.0 kmh WSW 12.0 mph19.3 kmh 29.57 in1001.4 mb 0.00 in0.0 mm 0.00 in0.0 mm 0.00 in0.0 mm
03:39 AM 45.2°F7.3°C 41.9°F5.5°C 88% 10.3 mph WSW16.6 kmh WSW 12.0 mph19.3 kmh 29.57 in1001.4 mb 0.00 in0.0 mm 0.00 in0.0 mm 0.00 in0.0 mm
03:38 AM 45.2°F7.3°C 41.9°F5.5°C 88% 10.3 mph WSW16.6 kmh WSW 12.0 mph19.3 kmh 29.57 in1001.4 mb 0.00 in0.0 mm 0.00 in0.0 mm 0.00 in0.0 mm
03:37 AM 45.2°F7.3°C 41.9°F5.5°C 88% 9.7 mph WSW15.6 kmh WSW 12.0 mph19.3 kmh 29.57 in1001.4 mb 0.00 in0.0 mm 0.00 in0.0 mm 0.00 in0.0 mm
03:36 AM 45.2°F7.3°C 41.9°F5.5°C 88% 10.2 mph WSW16.4 kmh WSW 12.0 mph19.3 kmh 29.57 in1001.4 mb 0.00 in0.0 mm 0.00 in0.0 mm 0.00 in0.0 mm
03:35 AM 45.2°F7.3°C 41.9°F5.5°C 88% 11.8 mph WSW19.0 kmh WSW 14.0 mph22.5 kmh 29.57 in1001.4 mb 0.00 in0.0 mm 0.00 in0.0 mm 0.00 in0.0 mm
03:34 AM 45.2°F7.3°C 41.9°F5.5°C 88% 11.0 mph WSW17.7 kmh WSW 14.0 mph22.5 kmh 29.57 in1001.4 mb 0.00 in0.0 mm 0.00 in0.0 mm 0.00 in0.0 mm
03:33 AM 45.3°F7.4°C 42.0°F5.6°C 88% 11.4 mph WSW18.3 kmh WSW 12.0 mph19.3 kmh 29.57 in1001.4 mb 0.00 in0.0 mm 0.00 in0.0 mm 0.00 in0.0 mm
03:32 AM 45.3°F7.4°C 42.0°F5.6°C 88% 10.8 mph WSW17.4 kmh WSW 12.0 mph19.3 kmh 29.57 in1001.4 mb 0.00 in0.0 mm 0.00 in0.0 mm 0.00 in0.0 mm
03:31 AM 45.2°F7.3°C 41.9°F5.5°C 88% 10.5 mph WSW16.9 kmh WSW 13.0 mph20.9 kmh 29.57 in1001.4 mb 0.00 in0.0 mm 0.00 in0.0 mm 0.00 in0.0 mm
03:30 AM 45.2°F7.3°C 41.9°F5.5°C 88% 12.1 mph WSW19.5 kmh WSW 14.0 mph22.5 kmh 29.57 in1001.4 mb 0.00 in0.0 mm 0.00 in0.0 mm 0.00 in0.0 mm
03:29 AM 45.2°F7.3°C 41.9°F5.5°C 88% 13.0 mph WSW20.9 kmh WSW 14.0 mph22.5 kmh 29.57 in1001.4 mb 0.00 in0.0 mm 0.00 in0.0 mm 0.00 in0.0 mm
03:28 AM 45.3°F7.4°C 42.0°F5.6°C 88% 12.1 mph WSW19.5 kmh WSW 16.0 mph25.7 kmh 29.57 in1001.4 mb 0.00 in0.0 mm 0.00 in0.0 mm 0.00 in0.0 mm
03:27 AM 45.3°F7.4°C 42.0°F5.6°C 88% 13.9 mph WSW22.4 kmh WSW 16.0 mph25.7 kmh 29.57 in1001.4 mb 0.00 in0.0 mm 0.00 in0.0 mm 0.00 in0.0 mm
03:26 AM 45.3°F7.4°C 42.0°F5.6°C 88% 12.1 mph WSW19.5 kmh WSW 14.0 mph22.5 kmh 29.57 in1001.4 mb 0.00 in0.0 mm 0.00 in0.0 mm 0.00 in0.0 mm
03:25 AM 45.4°F7.4°C 42.1°F5.6°C 88% 12.1 mph WSW19.5 kmh WSW 14.0 mph22.5 kmh 29.57 in1001.4 mb 0.00 in0.0 mm 0.00 in0.0 mm 0.00 in0.0 mm
03:24 AM 45.4°F7.4°C 42.1°F5.6°C 88% 11.2 mph WSW18.0 kmh WSW 14.0 mph22.5 kmh 29.57 in1001.4 mb 0.00 in0.0 mm 0.00 in0.0 mm 0.00 in0.0 mm
03:23 AM 45.4°F7.4°C 42.1°F5.6°C 88% 10.5 mph WSW16.9 kmh WSW 13.0 mph20.9 kmh 29.57 in1001.4 mb 0.00 in0.0 mm 0.00 in0.0 mm 0.00 in0.0 mm
03:22 AM 45.4°F7.4°C 42.1°F5.6°C 88% 9.9 mph WSW15.9 kmh WSW 13.0 mph20.9 kmh 29.57 in1001.4 mb 0.00 in0.0 mm 0.00 in0.0 mm 0.00 in0.0 mm
03:21 AM 45.3°F7.4°C 42.0°F5.6°C 88% 11.5 mph WSW18.5 kmh WSW 14.0 mph22.5 kmh 29.57 in1001.4 mb 0.00 in0.0 mm 0.00 in0.0 mm 0.00 in0.0 mm
03:20 AM 45.4°F7.4°C 42.1°F5.6°C 88% 11.4 mph WSW18.3 kmh WSW 14.0 mph22.5 kmh 29.57 in1001.4 mb 0.00 in0.0 mm 0.00 in0.0 mm 0.00 in0.0 mm
03:19 AM 45.5°F7.5°C 42.2°F5.7°C 88% 11.0 mph WSW17.7 kmh WSW 13.0 mph20.9 kmh 29.57 in1001.4 mb 0.00 in0.0 mm 0.00 in0.0 mm 0.00 in0.0 mm
03:18 AM 45.4°F7.4°C 42.1°F5.6°C 88% 10.2 mph WSW16.4 kmh WSW 13.0 mph20.9 kmh 29.57 in1001.4 mb 0.00 in0.0 mm 0.00 in0.0 mm 0.00 in0.0 mm
03:17 AM 45.5°F7.5°C 42.2°F5.7°C 88% 11.6 mph WSW18.7 kmh WSW 13.0 mph20.9 kmh 29.57 in1001.4 mb 0.00 in0.0 mm 0.00 in0.0 mm 0.00 in0.0 mm
03:16 AM 45.4°F7.4°C 42.1°F5.6°C 88% 11.5 mph WSW18.5 kmh WSW 15.0 mph24.1 kmh 29.57 in1001.4 mb 0.00 in0.0 mm 0.00 in0.0 mm 0.00 in0.0 mm
03:15 AM 45.4°F7.4°C 42.1°F5.6°C 88% 12.9 mph WSW20.8 kmh WSW 15.0 mph24.1 kmh 29.57 in1001.4 mb 0.00 in0.0 mm 0.00 in0.0 mm 0.00 in0.0 mm
03:14 AM 45.4°F7.4°C 42.1°F5.6°C 88% 12.8 mph WSW20.6 kmh WSW 14.0 mph22.5 kmh 29.57 in1001.4 mb 0.00 in0.0 mm 0.00 in0.0 mm 0.00 in0.0 mm
03:13 AM 45.4°F7.4°C 42.1°F5.6°C 88% 12.1 mph WSW19.5 kmh WSW 14.0 mph22.5 kmh 29.58 in1001.7 mb 0.00 in0.0 mm 0.00 in0.0 mm 0.00 in0.0 mm
03:12 AM 45.4°F7.4°C 42.1°F5.6°C 88% 12.6 mph WSW20.3 kmh WSW 14.0 mph22.5 kmh 29.58 in1001.7 mb 0.00 in0.0 mm 0.00 in0.0 mm 0.00 in0.0 mm
03:11 AM 45.4°F7.4°C 42.1°F5.6°C 88% 12.1 mph WSW19.5 kmh WSW 15.0 mph24.1 kmh 29.58 in1001.7 mb 0.00 in0.0 mm 0.00 in0.0 mm 0.00 in0.0 mm
03:10 AM 45.4°F7.4°C 42.1°F5.6°C 88% 13.4 mph WSW21.6 kmh WSW 16.0 mph25.7 kmh 29.58 in1001.7 mb 0.00 in0.0 mm 0.00 in0.0 mm 0.00 in0.0 mm
03:09 AM 45.4°F7.4°C 42.1°F5.6°C 88% 14.8 mph WSW23.8 kmh WSW 16.0 mph25.7 kmh 29.58 in1001.7 mb 0.00 in0.0 mm 0.00 in0.0 mm 0.00 in0.0 mm
03:08 AM 45.4°F7.4°C 42.1°F5.6°C 88% 14.3 mph SW23.0 kmh SW 15.0 mph24.1 kmh 29.58 in1001.7 mb 0.00 in0.0 mm 0.00 in0.0 mm 0.00 in0.0 mm
03:07 AM 45.5°F7.5°C 42.2°F5.7°C 88% 12.5 mph WSW20.1 kmh WSW 15.0 mph24.1 kmh 29.58 in1001.7 mb 0.00 in0.0 mm 0.00 in0.0 mm 0.00 in0.0 mm
03:06 AM 45.5°F7.5°C 42.4°F5.8°C 89% 11.1 mph WSW17.9 kmh WSW 13.0 mph20.9 kmh 29.58 in1001.7 mb 0.00 in0.0 mm 0.00 in0.0 mm 0.00 in0.0 mm
03:05 AM 45.5°F7.5°C 42.2°F5.7°C 88% 11.1 mph WSW17.9 kmh WSW 14.0 mph22.5 kmh 29.58 in1001.7 mb 0.00 in0.0 mm 0.00 in0.0 mm 0.00 in0.0 mm
03:04 AM 45.4°F7.4°C 42.1°F5.6°C 88% 12.1 mph WSW19.5 kmh WSW 14.0 mph22.5 kmh 29.58 in1001.7 mb 0.00 in0.0 mm 0.00 in0.0 mm 0.00 in0.0 mm
03:03 AM 45.4°F7.4°C 42.1°F5.6°C 88% 11.5 mph WSW18.5 kmh WSW 16.0 mph25.7 kmh 29.58 in1001.7 mb 0.00 in0.0 mm 0.00 in0.0 mm 0.00 in0.0 mm
03:02 AM 45.4°F7.4°C 42.1°F5.6°C 88% 13.8 mph WSW22.2 kmh WSW 17.0 mph27.4 kmh 29.58 in1001.7 mb 0.00 in0.0 mm 0.00 in0.0 mm 0.00 in0.0 mm
03:01 AM 45.4°F7.4°C 42.1°F5.6°C 88% 13.3 mph SW21.4 kmh SW 17.0 mph27.4 kmh 29.58 in1001.7 mb 0.00 in0.0 mm 0.00 in0.0 mm 0.00 in0.0 mm
03:00 AM 45.5°F7.5°C 42.2°F5.7°C 88% 12.1 mph WSW19.5 kmh WSW 15.0 mph24.1 kmh 29.58 in1001.7 mb 0.00 in0.0 mm 0.00 in0.0 mm 0.00 in0.0 mm
02:59 AM 45.4°F7.4°C 42.4°F5.8°C 89% 11.2 mph WSW18.0 kmh WSW 15.0 mph24.1 kmh 29.58 in1001.7 mb 0.00 in0.0 mm 0.00 in0.0 mm 0.00 in0.0 mm
02:58 AM 45.4°F7.4°C 42.1°F5.6°C 88% 10.8 mph WSW17.4 kmh WSW 15.0 mph24.1 kmh 29.58 in1001.7 mb 0.00 in0.0 mm 0.00 in0.0 mm 0.00 in0.0 mm
02:57 AM 45.4°F7.4°C 42.1°F5.6°C 88% 13.3 mph SW21.4 kmh SW 15.0 mph24.1 kmh 29.58 in1001.7 mb 0.00 in0.0 mm 0.00 in0.0 mm 0.00 in0.0 mm
02:56 AM 45.4°F7.4°C 42.1°F5.6°C 88% 12.7 mph WSW20.4 kmh WSW 15.0 mph24.1 kmh 29.58 in1001.7 mb 0.00 in0.0 mm 0.00 in0.0 mm 0.00 in0.0 mm
02:55 AM 45.4°F7.4°C 42.1°F5.6°C 88% 13.9 mph SW22.4 kmh SW 16.0 mph25.7 kmh 29.58 in1001.7 mb 0.00 in0.0 mm 0.00 in0.0 mm 0.00 in0.0 mm
02:54 AM 45.5°F7.5°C 42.2°F5.7°C 88% 13.1 mph SW21.1 kmh SW 16.0 mph25.7 kmh 29.58 in1001.7 mb 0.00 in0.0 mm 0.00 in0.0 mm 0.00 in0.0 mm
02:53 AM 45.4°F7.4°C 42.4°F5.8°C 89% 12.6 mph SW20.3 kmh SW 16.0 mph25.7 kmh 29.58 in1001.7 mb 0.00 in0.0 mm 0.00 in0.0 mm 0.00 in0.0 mm
02:52 AM 45.5°F7.5°C 42.4°F5.8°C 89% 11.9 mph WSW19.2 kmh WSW 16.0 mph25.7 kmh 29.58 in1001.7 mb 0.00 in0.0 mm 0.00 in0.0 mm 0.00 in0.0 mm
02:51 AM 45.4°F7.4°C 42.4°F5.8°C 89% 13.3 mph WSW21.4 kmh WSW 16.0 mph25.7 kmh 29.58 in1001.7 mb 0.00 in0.0 mm 0.00 in0.0 mm 0.00 in0.0 mm
02:50 AM 45.5°F7.5°C 42.4°F5.8°C 89% 11.0 mph WSW17.7 kmh WSW 15.0 mph24.1 kmh 29.58 in1001.7 mb 0.00 in0.0 mm 0.00 in0.0 mm 0.00 in0.0 mm
02:49 AM 45.5°F7.5°C 42.4°F5.8°C 89% 9.9 mph WSW15.9 kmh WSW 14.0 mph22.5 kmh 29.58 in1001.7 mb 0.00 in0.0 mm 0.00 in0.0 mm 0.00 in0.0 mm
02:48 AM 45.4°F7.4°C 42.4°F5.8°C 89% 12.2 mph WSW19.6 kmh WSW 16.0 mph25.7 kmh 29.58 in1001.7 mb 0.00 in0.0 mm 0.00 in0.0 mm 0.00 in0.0 mm
02:47 AM 45.4°F7.4°C 42.4°F5.8°C 89% 12.2 mph WSW19.6 kmh WSW 16.0 mph25.7 kmh 29.58 in1001.7 mb 0.00 in0.0 mm 0.00 in0.0 mm 0.00 in0.0 mm
02:46 AM 45.4°F7.4°C 42.4°F5.8°C 89% 11.3 mph WSW18.2 kmh WSW 14.0 mph22.5 kmh 29.59 in1002.0 mb 0.00 in0.0 mm 0.00 in0.0 mm 0.00 in0.0 mm
02:45 AM 45.4°F7.4°C 42.1°F5.6°C 88% 11.1 mph WSW17.9 kmh WSW 14.0 mph22.5 kmh 29.58 in1001.7 mb 0.00 in0.0 mm 0.00 in0.0 mm 0.00 in0.0 mm
02:44 AM 45.4°F7.4°C 42.4°F5.8°C 89% 11.7 mph WSW18.8 kmh WSW 14.0 mph22.5 kmh 29.59 in1002.0 mb 0.00 in0.0 mm 0.00 in0.0 mm 0.00 in0.0 mm
02:43 AM 45.4°F7.4°C 42.4°F5.8°C 89% 12.7 mph WSW20.4 kmh WSW 14.0 mph22.5 kmh 29.58 in1001.7 mb 0.00 in0.0 mm 0.00 in0.0 mm 0.00 in0.0 mm
02:42 AM 45.5°F7.5°C 42.4°F5.8°C 89% 12.2 mph WSW19.6 kmh WSW 15.0 mph24.1 kmh 29.58 in1001.7 mb 0.00 in0.0 mm 0.00 in0.0 mm 0.00 in0.0 mm
02:41 AM 45.5°F7.5°C 42.4°F5.8°C 89% 12.8 mph WSW20.6 kmh WSW 15.0 mph24.1 kmh 29.58 in1001.7 mb 0.00 in0.0 mm 0.00 in0.0 mm 0.00 in0.0 mm
02:40 AM 45.5°F7.5°C 42.4°F5.8°C 89% 11.2 mph WSW18.0 kmh WSW 13.0 mph20.9 kmh 29.59 in1002.0 mb 0.00 in0.0 mm 0.00 in0.0 mm 0.00 in0.0 mm
02:39 AM 45.5°F7.5°C 42.4°F5.8°C 89% 10.9 mph WSW17.5 kmh WSW 13.0 mph20.9 kmh 29.59 in1002.0 mb 0.00 in0.0 mm 0.00 in0.0 mm 0.00 in0.0 mm
02:38 AM 45.5°F7.5°C 42.4°F5.8°C 89% 9.1 mph WSW14.6 kmh WSW 15.0 mph24.1 kmh 29.59 in1002.0 mb 0.00 in0.0 mm 0.00 in0.0 mm 0.00 in0.0 mm
02:37 AM 45.4°F7.4°C 42.4°F5.8°C 89% 11.3 mph WSW18.2 kmh WSW 15.0 mph24.1 kmh 29.59 in1002.0 mb 0.00 in0.0 mm 0.00 in0.0 mm 0.00 in0.0 mm
02:36 AM 45.4°F7.4°C 42.4°F5.8°C 89% 10.5 mph WSW16.9 kmh WSW 14.0 mph22.5 kmh 29.59 in1002.0 mb 0.00 in0.0 mm 0.00 in0.0 mm 0.00 in0.0 mm
02:35 AM 45.4°F7.4°C 42.4°F5.8°C 89% 10.7 mph WSW17.2 kmh WSW 14.0 mph22.5 kmh 29.59 in1002.0 mb 0.00 in0.0 mm 0.00 in0.0 mm 0.00 in0.0 mm
02:34 AM 45.4°F7.4°C 42.4°F5.8°C 89% 12.2 mph WSW19.6 kmh WSW 16.0 mph25.7 kmh 29.59 in1002.0 mb 0.00 in0.0 mm 0.00 in0.0 mm 0.00 in0.0 mm
02:33 AM 45.4°F7.4°C 42.4°F5.8°C 89% 12.6 mph WSW20.3 kmh WSW 16.0 mph25.7 kmh 29.59 in1002.0 mb 0.00 in0.0 mm 0.00 in0.0 mm 0.00 in0.0 mm
02:32 AM 45.4°F7.4°C 42.4°F5.8°C 89% 13.1 mph WSW21.1 kmh WSW 15.0 mph24.1 kmh 29.59 in1002.0 mb 0.00 in0.0 mm 0.00 in0.0 mm 0.00 in0.0 mm
02:31 AM 45.5°F7.5°C 42.4°F5.8°C 89% 13.3 mph WSW21.4 kmh WSW 15.0 mph24.1 kmh 29.59 in1002.0 mb 0.00 in0.0 mm 0.00 in0.0 mm 0.00 in0.0 mm
02:30 AM 45.5°F7.5°C 42.4°F5.8°C 89% 10.8 mph WSW17.4 kmh WSW 15.0 mph24.1 kmh 29.59 in1002.0 mb 0.00 in0.0 mm 0.00 in0.0 mm 0.00 in0.0 mm
02:29 AM 45.4°F7.4°C 42.4°F5.8°C 89% 12.8 mph WSW20.6 kmh WSW 15.0 mph24.1 kmh 29.59 in1002.0 mb 0.00 in0.0 mm 0.00 in0.0 mm 0.00 in0.0 mm
02:28 AM 45.4°F7.4°C 42.4°F5.8°C 89% 14.1 mph WSW22.7 kmh WSW 15.0 mph24.1 kmh 29.59 in1002.0 mb 0.00 in0.0 mm 0.00 in0.0 mm 0.00 in0.0 mm
02:27 AM 45.5°F7.5°C 42.4°F5.8°C 89% 11.6 mph WSW18.7 kmh WSW 15.0 mph24.1 kmh 29.59 in1002.0 mb 0.00 in0.0 mm 0.00 in0.0 mm 0.00 in0.0 mm
02:26 AM 45.4°F7.4°C 42.4°F5.8°C 89% 12.2 mph WSW19.6 kmh WSW 15.0 mph24.1 kmh 29.59 in1002.0 mb 0.00 in0.0 mm 0.00 in0.0 mm 0.00 in0.0 mm
02:25 AM 45.4°F7.4°C 42.4°F5.8°C 89% 11.4 mph WSW18.3 kmh WSW 15.0 mph24.1 kmh 29.59 in1002.0 mb 0.00 in0.0 mm 0.00 in0.0 mm 0.00 in0.0 mm
02:24 AM 45.3°F7.4°C 42.3°F5.7°C 89% 13.3 mph WSW21.4 kmh WSW 15.0 mph24.1 kmh 29.59 in1002.0 mb 0.00 in0.0 mm 0.00 in0.0 mm 0.00 in0.0 mm
02:23 AM 45.4°F7.4°C 42.4°F5.8°C 89% 13.2 mph WSW21.2 kmh WSW 15.0 mph24.1 kmh 29.59 in1002.0 mb 0.00 in0.0 mm 0.00 in0.0 mm 0.00 in0.0 mm
02:22 AM 45.3°F7.4°C 42.3°F5.7°C 89% 13.1 mph WSW21.1 kmh WSW 15.0 mph24.1 kmh 29.59 in1002.0 mb 0.00 in0.0 mm 0.00 in0.0 mm 0.00 in0.0 mm
02:21 AM 45.4°F7.4°C 42.4°F5.8°C 89% 12.7 mph WSW20.4 kmh WSW 15.0 mph24.1 kmh 29.59 in1002.0 mb 0.00 in0.0 mm 0.00 in0.0 mm 0.00 in0.0 mm
02:20 AM 45.4°F7.4°C 42.4°F5.8°C 89% 11.8 mph WSW19.0 kmh WSW 14.0 mph22.5 kmh 29.59 in1002.0 mb 0.00 in0.0 mm 0.00 in0.0 mm 0.00 in0.0 mm
02:19 AM 45.4°F7.4°C 42.1°F5.6°C 88% 12.9 mph WSW20.8 kmh WSW 18.0 mph29.0 kmh 29.59 in1002.0 mb 0.00 in0.0 mm 0.00 in0.0 mm 0.00 in0.0 mm
02:18 AM 45.4°F7.4°C 42.1°F5.6°C 88% 15.0 mph WSW24.1 kmh WSW 19.0 mph30.6 kmh 29.59 in1002.0 mb 0.00 in0.0 mm 0.00 in0.0 mm 0.00 in0.0 mm
02:17 AM 45.4°F7.4°C 42.4°F5.8°C 89% 13.3 mph WSW21.4 kmh WSW 19.0 mph30.6 kmh 29.59 in1002.0 mb 0.00 in0.0 mm 0.00 in0.0 mm 0.00 in0.0 mm
02:16 AM 45.4°F7.4°C 42.1°F5.6°C 88% 12.0 mph WSW19.3 kmh WSW 16.0 mph25.7 kmh 29.59 in1002.0 mb 0.00 in0.0 mm 0.00 in0.0 mm 0.00 in0.0 mm
02:15 AM 45.4°F7.4°C 42.1°F5.6°C 88% 14.8 mph WSW23.8 kmh WSW 17.0 mph27.4 kmh 29.60 in1002.4 mb 0.00 in0.0 mm 0.00 in0.0 mm 0.00 in0.0 mm
02:14 AM 45.5°F7.5°C 42.4°F5.8°C 89% 14.4 mph WSW23.2 kmh WSW 17.0 mph27.4 kmh 29.59 in1002.0 mb 0.00 in0.0 mm 0.00 in0.0 mm 0.00 in0.0 mm
02:13 AM 45.5°F7.5°C 42.4°F5.8°C 89% 14.4 mph WSW23.2 kmh WSW 16.0 mph25.7 kmh 29.59 in1002.0 mb 0.00 in0.0 mm 0.00 in0.0 mm 0.00 in0.0 mm
02:12 AM 45.5°F7.5°C 42.4°F5.8°C 89% 14.3 mph WSW23.0 kmh WSW 16.0 mph25.7 kmh 29.60 in1002.4 mb 0.00 in0.0 mm 0.00 in0.0 mm 0.00 in0.0 mm
02:11 AM 45.5°F7.5°C 42.4°F5.8°C 89% 13.5 mph WSW21.7 kmh WSW 19.0 mph30.6 kmh 29.60 in1002.4 mb 0.00 in0.0 mm 0.00 in0.0 mm 0.00 in0.0 mm
02:10 AM 45.5°F7.5°C 42.4°F5.8°C 89% 15.3 mph WSW24.6 kmh WSW 19.0 mph30.6 kmh 29.60 in1002.4 mb 0.00 in0.0 mm 0.00 in0.0 mm 0.00 in0.0 mm
02:09 AM 45.4°F7.4°C 42.1°F5.6°C 88% 11.5 mph WSW18.5 kmh WSW 16.0 mph25.7 kmh 29.60 in1002.4 mb 0.00 in0.0 mm 0.00 in0.0 mm 0.00 in0.0 mm
02:08 AM 45.3°F7.4°C 42.0°F5.6°C 88% 13.1 mph WSW21.1 kmh WSW 17.0 mph27.4 kmh 29.60 in1002.4 mb 0.00 in0.0 mm 0.00 in0.0 mm 0.00 in0.0 mm
02:07 AM 45.3°F7.4°C 42.0°F5.6°C 88% 14.9 mph WSW24.0 kmh WSW 19.0 mph30.6 kmh 29.60 in1002.4 mb 0.00 in0.0 mm 0.00 in0.0 mm 0.00 in0.0 mm
02:06 AM 45.4°F7.4°C 42.1°F5.6°C 88% 16.0 mph WSW25.7 kmh WSW 19.0 mph30.6 kmh 29.60 in1002.4 mb 0.00 in0.0 mm 0.00 in0.0 mm 0.00 in0.0 mm
02:05 AM 45.4°F7.4°C 42.1°F5.6°C 88% 15.5 mph WSW24.9 kmh WSW 18.0 mph29.0 kmh 29.60 in1002.4 mb 0.00 in0.0 mm 0.00 in0.0 mm 0.00 in0.0 mm
02:04 AM 45.4°F7.4°C 42.1°F5.6°C 88% 15.5 mph WSW24.9 kmh WSW 20.0 mph32.2 kmh 29.60 in1002.4 mb 0.00 in0.0 mm 0.00 in0.0 mm 0.00 in0.0 mm
02:03 AM 45.4°F7.4°C 42.1°F5.6°C 88% 16.0 mph WSW25.7 kmh WSW 20.0 mph32.2 kmh 29.60 in1002.4 mb 0.00 in0.0 mm 0.00 in0.0 mm 0.00 in0.0 mm
02:02 AM 45.5°F7.5°C 42.2°F5.7°C 88% 18.8 mph WSW30.3 kmh WSW 20.0 mph32.2 kmh 29.60 in1002.4 mb 0.00 in0.0 mm 0.00 in0.0 mm 0.00 in0.0 mm
02:01 AM 45.6°F7.6°C 42.3°F5.7°C 88% 14.5 mph WSW23.3 kmh WSW 18.0 mph29.0 kmh 29.60 in1002.4 mb 0.00 in0.0 mm 0.00 in0.0 mm 0.00 in0.0 mm
02:00 AM 45.6°F7.6°C 42.3°F5.7°C 88% 14.9 mph WSW24.0 kmh WSW 18.0 mph29.0 kmh 29.60 in1002.4 mb 0.00 in0.0 mm 0.00 in0.0 mm 0.00 in0.0 mm
01:59 AM 45.6°F7.6°C 42.3°F5.7°C 88% 15.9 mph WSW25.6 kmh WSW 18.0 mph29.0 kmh 29.60 in1002.4 mb 0.00 in0.0 mm 0.00 in0.0 mm 0.00 in0.0 mm
01:58 AM 45.6°F7.6°C 42.3°F5.7°C 88% 15.5 mph WSW24.9 kmh WSW 20.0 mph32.2 kmh 29.61 in1002.7 mb 0.00 in0.0 mm 0.00 in0.0 mm 0.00 in0.0 mm
01:57 AM 45.6°F7.6°C 42.3°F5.7°C 88% 16.0 mph WSW25.7 kmh WSW 20.0 mph32.2 kmh 29.60 in1002.4 mb 0.00 in0.0 mm 0.00 in0.0 mm 0.00 in0.0 mm
01:56 AM 45.5°F7.5°C 42.2°F5.7°C 88% 16.7 mph WSW26.9 kmh WSW 20.0 mph32.2 kmh 29.61 in1002.7 mb 0.00 in0.0 mm 0.00 in0.0 mm 0.00 in0.0 mm
01:55 AM 45.6°F7.6°C 42.3°F5.7°C 88% 17.8 mph WSW28.6 kmh WSW 20.0 mph32.2 kmh 29.60 in1002.4 mb 0.00 in0.0 mm 0.00 in0.0 mm 0.00 in0.0 mm
01:54 AM 45.7°F7.6°C 42.4°F5.8°C 88% 15.4 mph WSW24.8 kmh WSW 18.0 mph29.0 kmh 29.61 in1002.7 mb 0.00 in0.0 mm 0.00 in0.0 mm 0.00 in0.0 mm
01:53 AM 45.7°F7.6°C 42.4°F5.8°C 88% 15.4 mph WSW24.8 kmh WSW 18.0 mph29.0 kmh 29.61 in1002.7 mb 0.00 in0.0 mm 0.00 in0.0 mm 0.00 in0.0 mm
01:52 AM 45.6°F7.6°C 42.3°F5.7°C 88% 13.9 mph WSW22.4 kmh WSW 17.0 mph27.4 kmh 29.61 in1002.7 mb 0.00 in0.0 mm 0.00 in0.0 mm 0.00 in0.0 mm
01:51 AM 45.6°F7.6°C 42.3°F5.7°C 88% 14.5 mph WSW23.3 kmh WSW 17.0 mph27.4 kmh 29.61 in1002.7 mb 0.00 in0.0 mm 0.00 in0.0 mm 0.00 in0.0 mm
01:50 AM 45.6°F7.6°C 42.3°F5.7°C 88% 14.8 mph WSW23.8 kmh WSW 17.0 mph27.4 kmh 29.61 in1002.7 mb 0.00 in0.0 mm 0.00 in0.0 mm 0.00 in0.0 mm
01:49 AM 45.7°F7.6°C 42.4°F5.8°C 88% 13.8 mph WSW22.2 kmh WSW 17.0 mph27.4 kmh 29.61 in1002.7 mb 0.00 in0.0 mm 0.00 in0.0 mm 0.00 in0.0 mm
01:48 AM 45.7°F7.6°C 42.4°F5.8°C 88% 12.6 mph WSW20.3 kmh WSW 17.0 mph27.4 kmh 29.61 in1002.7 mb 0.00 in0.0 mm 0.00 in0.0 mm 0.00 in0.0 mm
01:47 AM 45.8°F7.7°C 42.5°F5.8°C 88% 14.8 mph WSW23.8 kmh WSW 17.0 mph27.4 kmh 29.61 in1002.7 mb 0.00 in0.0 mm 0.00 in0.0 mm 0.00 in0.0 mm
01:46 AM 45.8°F7.7°C 42.5°F5.8°C 88% 12.8 mph WSW20.6 kmh WSW 16.0 mph25.7 kmh 29.61 in1002.7 mb 0.00 in0.0 mm 0.00 in0.0 mm 0.00 in0.0 mm
01:45 AM 45.8°F7.7°C 42.5°F5.8°C 88% 12.6 mph WSW20.3 kmh WSW 17.0 mph27.4 kmh 29.61 in1002.7 mb 0.00 in0.0 mm 0.00 in0.0 mm 0.00 in0.0 mm
01:44 AM 45.8°F7.7°C 42.5°F5.8°C 88% 13.5 mph WSW21.7 kmh WSW 17.0 mph27.4 kmh 29.61 in1002.7 mb 0.00 in0.0 mm 0.00 in0.0 mm 0.00 in0.0 mm
01:43 AM 45.8°F7.7°C 42.5°F5.8°C 88% 12.7 mph WSW20.4 kmh WSW 15.0 mph24.1 kmh 29.61 in1002.7 mb 0.00 in0.0 mm 0.00 in0.0 mm 0.00 in0.0 mm
01:42 AM 45.8°F7.7°C 42.5°F5.8°C 88% 11.7 mph WSW18.8 kmh WSW 15.0 mph24.1 kmh 29.61 in1002.7 mb 0.00 in0.0 mm 0.00 in0.0 mm 0.00 in0.0 mm
01:41 AM 45.8°F7.7°C 42.5°F5.8°C 88% 12.5 mph WSW20.1 kmh WSW 14.0 mph22.5 kmh 29.61 in1002.7 mb 0.00 in0.0 mm 0.00 in0.0 mm 0.00 in0.0 mm
01:40 AM 45.8°F7.7°C 42.5°F5.8°C 88% 13.0 mph WSW20.9 kmh WSW 16.0 mph25.7 kmh 29.61 in1002.7 mb 0.00 in0.0 mm 0.00 in0.0 mm 0.00 in0.0 mm
01:39 AM 45.8°F7.7°C 42.5°F5.8°C 88% 12.6 mph WSW20.3 kmh WSW 16.0 mph25.7 kmh 29.61 in1002.7 mb 0.00 in0.0 mm 0.00 in0.0 mm 0.00 in0.0 mm
01:38 AM 45.8°F7.7°C 42.5°F5.8°C 88% 14.0 mph WSW22.5 kmh WSW 16.0 mph25.7 kmh 29.61 in1002.7 mb 0.00 in0.0 mm 0.00 in0.0 mm 0.00 in0.0 mm
01:37 AM 45.8°F7.7°C 42.5°F5.8°C 88% 13.9 mph WSW22.4 kmh WSW 17.0 mph27.4 kmh 29.61 in1002.7 mb 0.00 in0.0 mm 0.00 in0.0 mm 0.00 in0.0 mm
01:36 AM 45.8°F7.7°C 42.7°F5.9°C 89% 13.6 mph WSW21.9 kmh WSW 17.0 mph27.4 kmh 29.61 in1002.7 mb 0.00 in0.0 mm 0.00 in0.0 mm 0.00 in0.0 mm
01:35 AM 45.7°F7.6°C 42.6°F5.9°C 89% 13.5 mph WSW21.7 kmh WSW 16.0 mph25.7 kmh 29.61 in1002.7 mb 0.00 in0.0 mm 0.00 in0.0 mm 0.00 in0.0 mm
01:34 AM 45.7°F7.6°C 42.4°F5.8°C 88% 11.2 mph WSW18.0 kmh WSW 16.0 mph25.7 kmh 29.61 in1002.7 mb 0.00 in0.0 mm 0.00 in0.0 mm 0.00 in0.0 mm
01:33 AM 45.6°F7.6°C 42.3°F5.7°C 88% 11.1 mph WSW17.9 kmh WSW 13.0 mph20.9 kmh 29.61 in1002.7 mb 0.00 in0.0 mm 0.00 in0.0 mm 0.00 in0.0 mm
01:32 AM 45.6°F7.6°C 42.3°F5.7°C 88% 10.8 mph WSW17.4 kmh WSW 13.0 mph20.9 kmh 29.61 in1002.7 mb 0.00 in0.0 mm 0.00 in0.0 mm 0.00 in0.0 mm
01:31 AM 45.6°F7.6°C 42.3°F5.7°C 88% 10.1 mph WSW16.3 kmh WSW 13.0 mph20.9 kmh 29.61 in1002.7 mb 0.00 in0.0 mm 0.00 in0.0 mm 0.00 in0.0 mm
01:30 AM 45.5°F7.5°C 42.2°F5.7°C 88% 10.4 mph SW16.7 kmh SW 15.0 mph24.1 kmh 29.61 in1002.7 mb 0.00 in0.0 mm 0.00 in0.0 mm 0.00 in0.0 mm
01:29 AM 45.5°F7.5°C 42.2°F5.7°C 88% 11.7 mph SW18.8 kmh SW 15.0 mph24.1 kmh 29.61 in1002.7 mb 0.00 in0.0 mm 0.00 in0.0 mm 0.00 in0.0 mm
01:28 AM 45.5°F7.5°C 42.2°F5.7°C 88% 9.4 mph SW15.1 kmh SW 11.0 mph17.7 kmh 29.61 in1002.7 mb 0.00 in0.0 mm 0.00 in0.0 mm 0.00 in0.0 mm
01:27 AM 45.4°F7.4°C 42.1°F5.6°C 88% 9.5 mph SW15.3 kmh SW 15.0 mph24.1 kmh 29.62 in1003.0 mb 0.00 in0.0 mm 0.00 in0.0 mm 0.00 in0.0 mm
01:26 AM 45.4°F7.4°C 42.1°F5.6°C 88% 10.5 mph SW16.9 kmh SW 15.0 mph24.1 kmh 29.61 in1002.7 mb 0.00 in0.0 mm 0.00 in0.0 mm 0.00 in0.0 mm
01:25 AM 45.4°F7.4°C 42.1°F5.6°C 88% 9.9 mph SW15.9 kmh SW 14.0 mph22.5 kmh 29.62 in1003.0 mb 0.00 in0.0 mm 0.00 in0.0 mm 0.00 in0.0 mm
01:24 AM 45.3°F7.4°C 42.0°F5.6°C 88% 9.4 mph SW15.1 kmh SW 12.0 mph19.3 kmh 29.62 in1003.0 mb 0.00 in0.0 mm 0.00 in0.0 mm 0.00 in0.0 mm
01:23 AM 45.3°F7.4°C 42.0°F5.6°C 88% 10.0 mph SW16.1 kmh SW 14.0 mph22.5 kmh 29.62 in1003.0 mb 0.00 in0.0 mm 0.00 in0.0 mm 0.00 in0.0 mm
01:22 AM 45.3°F7.4°C 41.7°F5.4°C 87% 11.1 mph SW17.9 kmh SW 14.0 mph22.5 kmh 29.62 in1003.0 mb 0.00 in0.0 mm 0.00 in0.0 mm 0.00 in0.0 mm
01:21 AM 45.2°F7.3°C 41.6°F5.3°C 87% 9.6 mph SW15.4 kmh SW 12.0 mph19.3 kmh 29.61 in1002.7 mb 0.00 in0.0 mm 0.00 in0.0 mm 0.00 in0.0 mm
01:20 AM 45.2°F7.3°C 41.9°F5.5°C 88% 9.4 mph SW15.1 kmh SW 12.0 mph19.3 kmh 29.62 in1003.0 mb 0.00 in0.0 mm 0.00 in0.0 mm 0.00 in0.0 mm
01:19 AM 45.2°F7.3°C 41.6°F5.3°C 87% 9.2 mph SW14.8 kmh SW 12.0 mph19.3 kmh 29.62 in1003.0 mb 0.00 in0.0 mm 0.00 in0.0 mm 0.00 in0.0 mm
01:18 AM 45.2°F7.3°C 41.9°F5.5°C 88% 10.4 mph SW16.7 kmh SW 13.0 mph20.9 kmh 29.62 in1003.0 mb 0.00 in0.0 mm 0.00 in0.0 mm 0.00 in0.0 mm
01:17 AM 45.2°F7.3°C 41.6°F5.3°C 87% 10.2 mph SW16.4 kmh SW 14.0 mph22.5 kmh 29.62 in1003.0 mb 0.00 in0.0 mm 0.00 in0.0 mm 0.00 in0.0 mm
01:16 AM 45.1°F7.3°C 41.5°F5.3°C 87% 11.2 mph SW18.0 kmh SW 14.0 mph22.5 kmh 29.62 in1003.0 mb 0.00 in0.0 mm 0.00 in0.0 mm 0.00 in0.0 mm
01:15 AM 45.1°F7.3°C 41.5°F5.3°C 87% 9.8 mph SW15.8 kmh SW 13.0 mph20.9 kmh 29.62 in1003.0 mb 0.00 in0.0 mm 0.00 in0.0 mm 0.00 in0.0 mm
01:14 AM 45.1°F7.3°C 41.5°F5.3°C 87% 10.3 mph SW16.6 kmh SW 13.0 mph20.9 kmh 29.62 in1003.0 mb 0.00 in0.0 mm 0.00 in0.0 mm 0.00 in0.0 mm
01:13 AM 45.1°F7.3°C 41.5°F5.3°C 87% 10.0 mph SW16.1 kmh SW 13.0 mph20.9 kmh 29.62 in1003.0 mb 0.00 in0.0 mm 0.00 in0.0 mm 0.00 in0.0 mm
01:12 AM 45.1°F7.3°C 41.5°F5.3°C 87% 10.6 mph SW17.1 kmh SW 13.0 mph20.9 kmh 29.62 in1003.0 mb 0.00 in0.0 mm 0.00 in0.0 mm 0.00 in0.0 mm
01:11 AM 45.1°F7.3°C 41.5°F5.3°C 87% 9.1 mph SW14.6 kmh SW 12.0 mph19.3 kmh 29.62 in1003.0 mb 0.00 in0.0 mm 0.00 in0.0 mm 0.00 in0.0 mm
01:10 AM 45.0°F7.2°C 41.4°F5.2°C 87% 7.4 mph SW11.9 kmh SW 12.0 mph19.3 kmh 29.62 in1003.0 mb 0.00 in0.0 mm 0.00 in0.0 mm 0.00 in0.0 mm
01:09 AM 45.0°F7.2°C 41.4°F5.2°C 87% 8.5 mph SW13.7 kmh SW 14.0 mph22.5 kmh 29.62 in1003.0 mb 0.00 in0.0 mm 0.00 in0.0 mm 0.00 in0.0 mm
01:08 AM 44.9°F7.2°C 41.3°F5.2°C 87% 10.1 mph SW16.3 kmh SW 14.0 mph22.5 kmh 29.62 in1003.0 mb 0.00 in0.0 mm 0.00 in0.0 mm 0.00 in0.0 mm
01:07 AM 45.0°F7.2°C 41.4°F5.2°C 87% 7.8 mph SW12.6 kmh SW 10.0 mph16.1 kmh 29.62 in1003.0 mb 0.00 in0.0 mm 0.00 in0.0 mm 0.00 in0.0 mm
01:06 AM 45.0°F7.2°C 41.4°F5.2°C 87% 5.8 mph SW9.3 kmh SW 9.0 mph14.5 kmh 29.62 in1003.0 mb 0.00 in0.0 mm 0.00 in0.0 mm 0.00 in0.0 mm
01:05 AM 45.0°F7.2°C 41.4°F5.2°C 87% 7.0 mph SW11.3 kmh SW 9.0 mph14.5 kmh 29.62 in1003.0 mb 0.00 in0.0 mm 0.00 in0.0 mm 0.00 in0.0 mm
01:04 AM 44.9°F7.2°C 41.3°F5.2°C 87% 7.4 mph SW11.9 kmh SW 11.0 mph17.7 kmh 29.62 in1003.0 mb 0.00 in0.0 mm 0.00 in0.0 mm 0.00 in0.0 mm
01:03 AM 44.9°F7.2°C 41.3°F5.2°C 87% 8.5 mph SW13.7 kmh SW 12.0 mph19.3 kmh 29.62 in1003.0 mb 0.00 in0.0 mm 0.00 in0.0 mm 0.00 in0.0 mm
01:02 AM 44.9°F7.2°C 41.3°F5.2°C 87% 8.9 mph SW14.3 kmh SW 12.0 mph19.3 kmh 29.62 in1003.0 mb 0.00 in0.0 mm 0.00 in0.0 mm 0.00 in0.0 mm
01:01 AM 44.9°F7.2°C 41.3°F5.2°C 87% 8.5 mph SW13.7 kmh SW 11.0 mph17.7 kmh 29.62 in1003.0 mb 0.00 in0.0 mm 0.00 in0.0 mm 0.00 in0.0 mm
01:00 AM 45.0°F7.2°C 41.4°F5.2°C 87% 7.3 mph SW11.7 kmh SW 10.0 mph16.1 kmh 29.62 in1003.0 mb 0.00 in0.0 mm 0.00 in0.0 mm 0.00 in0.0 mm
12:59 AM 45.0°F7.2°C 41.4°F5.2°C 87% 7.5 mph SW12.1 kmh SW 11.0 mph17.7 kmh 29.62 in1003.0 mb 0.00 in0.0 mm 0.00 in0.0 mm 0.00 in0.0 mm
12:58 AM 44.9°F7.2°C 41.3°F5.2°C 87% 9.2 mph SW14.8 kmh SW 13.0 mph20.9 kmh 29.62 in1003.0 mb 0.00 in0.0 mm 0.00 in0.0 mm 0.00 in0.0 mm
12:57 AM 44.9°F7.2°C 41.3°F5.2°C 87% 8.7 mph SW14.0 kmh SW 13.0 mph20.9 kmh 29.63 in1003.4 mb 0.00 in0.0 mm 0.00 in0.0 mm 0.00 in0.0 mm
12:56 AM 44.9°F7.2°C 41.3°F5.2°C 87% 8.4 mph SW13.5 kmh SW 11.0 mph17.7 kmh 29.63 in1003.4 mb 0.00 in0.0 mm 0.00 in0.0 mm 0.00 in0.0 mm
12:55 AM 44.9°F7.2°C 41.3°F5.2°C 87% 8.3 mph SW13.4 kmh SW 11.0 mph17.7 kmh 29.63 in1003.4 mb 0.00 in0.0 mm 0.00 in0.0 mm 0.00 in0.0 mm
12:54 AM 44.9°F7.2°C 41.3°F5.2°C 87% 7.7 mph SW12.4 kmh SW 14.0 mph22.5 kmh 29.63 in1003.4 mb 0.00 in0.0 mm 0.00 in0.0 mm 0.00 in0.0 mm
12:53 AM 44.9°F7.2°C 41.3°F5.2°C 87% 10.2 mph SW16.4 kmh SW 14.0 mph22.5 kmh 29.63 in1003.4 mb 0.00 in0.0 mm 0.00 in0.0 mm 0.00 in0.0 mm
12:52 AM 44.9°F7.2°C 41.3°F5.2°C 87% 7.7 mph SW12.4 kmh SW 10.0 mph16.1 kmh 29.63 in1003.4 mb 0.00 in0.0 mm 0.00 in0.0 mm 0.00 in0.0 mm
12:51 AM 44.9°F7.2°C 41.3°F5.2°C 87% 7.8 mph SW12.6 kmh SW 11.0 mph17.7 kmh 29.63 in1003.4 mb 0.00 in0.0 mm 0.00 in0.0 mm 0.00 in0.0 mm
12:50 AM 44.8°F7.1°C 41.2°F5.1°C 87% 8.4 mph SW13.5 kmh SW 11.0 mph17.7 kmh 29.63 in1003.4 mb 0.00 in0.0 mm 0.00 in0.0 mm 0.00 in0.0 mm
12:49 AM 44.8°F7.1°C 41.2°F5.1°C 87% 7.9 mph SW12.7 kmh SW 10.0 mph16.1 kmh 29.63 in1003.4 mb 0.00 in0.0 mm 0.00 in0.0 mm 0.00 in0.0 mm
12:48 AM 44.8°F7.1°C 41.2°F5.1°C 87% 7.3 mph SW11.7 kmh SW 10.0 mph16.1 kmh 29.63 in1003.4 mb 0.00 in0.0 mm 0.00 in0.0 mm 0.00 in0.0 mm
12:47 AM 44.8°F7.1°C 41.2°F5.1°C 87% 7.5 mph SW12.1 kmh SW 10.0 mph16.1 kmh 29.63 in1003.4 mb 0.00 in0.0 mm 0.00 in0.0 mm 0.00 in0.0 mm
12:46 AM 44.8°F7.1°C 41.2°F5.1°C 87% 8.5 mph SW13.7 kmh SW 12.0 mph19.3 kmh 29.63 in1003.4 mb 0.00 in0.0 mm 0.00 in0.0 mm 0.00 in0.0 mm
12:45 AM 44.8°F7.1°C 41.2°F5.1°C 87% 9.7 mph SW15.6 kmh SW 14.0 mph22.5 kmh 29.63 in1003.4 mb 0.00 in0.0 mm 0.00 in0.0 mm 0.00 in0.0 mm
12:44 AM 44.8°F7.1°C 41.2°F5.1°C 87% 11.4 mph SW18.3 kmh SW 14.0 mph22.5 kmh 29.63 in1003.4 mb 0.00 in0.0 mm 0.00 in0.0 mm 0.00 in0.0 mm
12:43 AM 44.8°F7.1°C 40.9°F4.9°C 86% 8.4 mph SW13.5 kmh SW 13.0 mph20.9 kmh 29.63 in1003.4 mb 0.00 in0.0 mm 0.00 in0.0 mm 0.00 in0.0 mm
12:42 AM 44.8°F7.1°C 41.2°F5.1°C 87% 6.9 mph SW11.1 kmh SW 13.0 mph20.9 kmh 29.63 in1003.4 mb 0.00 in0.0 mm 0.00 in0.0 mm 0.00 in0.0 mm
12:41 AM 44.8°F7.1°C 41.2°F5.1°C 87% 8.4 mph SW13.5 kmh SW 15.0 mph24.1 kmh 29.63 in1003.4 mb 0.00 in0.0 mm 0.00 in0.0 mm 0.00 in0.0 mm
12:40 AM 44.8°F7.1°C 41.2°F5.1°C 87% 11.6 mph SW18.7 kmh SW 15.0 mph24.1 kmh 29.63 in1003.4 mb 0.00 in0.0 mm 0.00 in0.0 mm 0.00 in0.0 mm
12:39 AM 44.8°F7.1°C 41.2°F5.1°C 87% 10.1 mph SW16.3 kmh SW 14.0 mph22.5 kmh 29.63 in1003.4 mb 0.00 in0.0 mm 0.00 in0.0 mm 0.00 in0.0 mm
12:38 AM 44.8°F7.1°C 41.2°F5.1°C 87% 7.9 mph SW12.7 kmh SW 12.0 mph19.3 kmh 29.64 in1003.7 mb 0.00 in0.0 mm 0.00 in0.0 mm 0.00 in0.0 mm
12:37 AM 44.8°F7.1°C 41.2°F5.1°C 87% 8.2 mph SW13.2 kmh SW 11.0 mph17.7 kmh 29.63 in1003.4 mb 0.00 in0.0 mm 0.00 in0.0 mm 0.00 in0.0 mm
12:36 AM 44.8°F7.1°C 41.2°F5.1°C 87% 9.4 mph SW15.1 kmh SW 11.0 mph17.7 kmh 29.64 in1003.7 mb 0.00 in0.0 mm 0.00 in0.0 mm 0.00 in0.0 mm
12:35 AM 44.8°F7.1°C 41.2°F5.1°C 87% 8.7 mph SW14.0 kmh SW 11.0 mph17.7 kmh 29.64 in1003.7 mb 0.00 in0.0 mm 0.00 in0.0 mm 0.00 in0.0 mm
12:34 AM 44.7°F7.1°C 41.1°F5.1°C 87% 6.9 mph SW11.1 kmh SW 12.0 mph19.3 kmh 29.64 in1003.7 mb 0.00 in0.0 mm 0.00 in0.0 mm 0.00 in0.0 mm
12:33 AM 44.8°F7.1°C 41.2°F5.1°C 87% 9.4 mph SW15.1 kmh SW 13.0 mph20.9 kmh 29.64 in1003.7 mb 0.00 in0.0 mm 0.00 in0.0 mm 0.00 in0.0 mm
12:32 AM 44.8°F7.1°C 41.2°F5.1°C 87% 11.3 mph SW18.2 kmh SW 13.0 mph20.9 kmh 29.64 in1003.7 mb 0.00 in0.0 mm 0.00 in0.0 mm 0.00 in0.0 mm
12:31 AM 44.8°F7.1°C 41.2°F5.1°C 87% 9.8 mph SW15.8 kmh SW 13.0 mph20.9 kmh 29.64 in1003.7 mb 0.00 in0.0 mm 0.00 in0.0 mm 0.00 in0.0 mm
12:30 AM 44.8°F7.1°C 41.2°F5.1°C 87% 10.5 mph SW16.9 kmh SW 13.0 mph20.9 kmh 29.64 in1003.7 mb 0.00 in0.0 mm 0.00 in0.0 mm 0.00 in0.0 mm
12:29 AM 44.8°F7.1°C 41.2°F5.1°C 87% 11.0 mph SW17.7 kmh SW 17.0 mph27.4 kmh 29.64 in1003.7 mb 0.00 in0.0 mm 0.00 in0.0 mm 0.00 in0.0 mm
12:28 AM 44.9°F7.2°C 41.3°F5.2°C 87% 11.3 mph SW18.2 kmh SW 17.0 mph27.4 kmh 29.64 in1003.7 mb 0.00 in0.0 mm 0.00 in0.0 mm 0.00 in0.0 mm
12:27 AM 44.9°F7.2°C 41.3°F5.2°C 87% 9.4 mph SW15.1 kmh SW 12.0 mph19.3 kmh 29.64 in1003.7 mb 0.00 in0.0 mm 0.00 in0.0 mm 0.00 in0.0 mm
12:26 AM 44.9°F7.2°C 41.3°F5.2°C 87% 9.0 mph SW14.5 kmh SW 11.0 mph17.7 kmh 29.64 in1003.7 mb 0.00 in0.0 mm 0.00 in0.0 mm 0.00 in0.0 mm
12:25 AM 44.8°F7.1°C 41.2°F5.1°C 87% 9.0 mph SW14.5 kmh SW 11.0 mph17.7 kmh 29.64 in1003.7 mb 0.00 in0.0 mm 0.00 in0.0 mm 0.00 in0.0 mm
12:24 AM 44.9°F7.2°C 41.3°F5.2°C 87% 9.0 mph SW14.5 kmh SW 11.0 mph17.7 kmh 29.64 in1003.7 mb 0.00 in0.0 mm 0.00 in0.0 mm 0.00 in0.0 mm
12:23 AM 44.8°F7.1°C 41.2°F5.1°C 87% 9.8 mph SW15.8 kmh SW 12.0 mph19.3 kmh 29.64 in1003.7 mb 0.00 in0.0 mm 0.00 in0.0 mm 0.00 in0.0 mm
12:22 AM 44.9°F7.2°C 41.3°F5.2°C 87% 6.7 mph SW10.8 kmh SW 9.0 mph14.5 kmh 29.64 in1003.7 mb 0.00 in0.0 mm 0.00 in0.0 mm 0.00 in0.0 mm
12:21 AM 44.9°F7.2°C 41.3°F5.2°C 87% 7.0 mph SW11.3 kmh SW 10.0 mph16.1 kmh 29.64 in1003.7 mb 0.00 in0.0 mm 0.00 in0.0 mm 0.00 in0.0 mm
12:20 AM 44.8°F7.1°C 41.2°F5.1°C 87% 8.6 mph SW13.8 kmh SW 12.0 mph19.3 kmh 29.64 in1003.7 mb 0.00 in0.0 mm 0.00 in0.0 mm 0.00 in0.0 mm
12:19 AM 44.9°F7.2°C 41.3°F5.2°C 87% 9.9 mph SW15.9 kmh SW 12.0 mph19.3 kmh 29.64 in1003.7 mb 0.00 in0.0 mm 0.00 in0.0 mm 0.00 in0.0 mm
12:18 AM 44.8°F7.1°C 41.2°F5.1°C 87% 8.5 mph SW13.7 kmh SW 11.0 mph17.7 kmh 29.64 in1003.7 mb 0.00 in0.0 mm 0.00 in0.0 mm 0.00 in0.0 mm
12:17 AM 44.8°F7.1°C 41.2°F5.1°C 87% 10.1 mph SW16.3 kmh SW 12.0 mph19.3 kmh 29.64 in1003.7 mb 0.00 in0.0 mm 0.00 in0.0 mm 0.00 in0.0 mm
12:16 AM 44.8°F7.1°C 41.2°F5.1°C 87% 8.7 mph SW14.0 kmh SW 12.0 mph19.3 kmh 29.64 in1003.7 mb 0.00 in0.0 mm 0.00 in0.0 mm 0.00 in0.0 mm
12:15 AM 44.7°F7.1°C 41.1°F5.1°C 87% 9.3 mph SW15.0 kmh SW 12.0 mph19.3 kmh 29.64 in1003.7 mb 0.00 in0.0 mm 0.00 in0.0 mm 0.00 in0.0 mm
12:14 AM 44.7°F7.1°C 41.1°F5.1°C 87% 9.7 mph SW15.6 kmh SW 12.0 mph19.3 kmh 29.64 in1003.7 mb 0.00 in0.0 mm 0.00 in0.0 mm 0.00 in0.0 mm
12:13 AM 44.7°F7.1°C 41.1°F5.1°C 87% 9.9 mph SW15.9 kmh SW 12.0 mph19.3 kmh 29.64 in1003.7 mb 0.00 in0.0 mm 0.00 in0.0 mm 0.00 in0.0 mm
12:12 AM 44.7°F7.1°C 41.1°F5.1°C 87% 9.0 mph SW14.5 kmh SW 12.0 mph19.3 kmh 29.64 in1003.7 mb 0.00 in0.0 mm 0.00 in0.0 mm 0.00 in0.0 mm
12:11 AM 44.7°F7.1°C 41.1°F5.1°C 87% 8.1 mph SW13.0 kmh SW 11.0 mph17.7 kmh 29.64 in1003.7 mb 0.00 in0.0 mm 0.00 in0.0 mm 0.00 in0.0 mm
12:10 AM 44.8°F7.1°C 41.2°F5.1°C 87% 9.0 mph SW14.5 kmh SW 12.0 mph19.3 kmh 29.64 in1003.7 mb 0.00 in0.0 mm 0.00 in0.0 mm 0.00 in0.0 mm
12:09 AM 44.7°F7.1°C 41.1°F5.1°C 87% 9.3 mph SW15.0 kmh SW 12.0 mph19.3 kmh 29.64 in1003.7 mb 0.00 in0.0 mm 0.00 in0.0 mm 0.00 in0.0 mm
12:08 AM 44.7°F7.1°C 41.1°F5.1°C 87% 7.5 mph SW12.1 kmh SW 10.0 mph16.1 kmh 29.64 in1003.7 mb 0.00 in0.0 mm 0.00 in0.0 mm 0.00 in0.0 mm
12:07 AM 44.7°F7.1°C 41.1°F5.1°C 87% 7.3 mph SW11.7 kmh SW 11.0 mph17.7 kmh 29.64 in1003.7 mb 0.00 in0.0 mm 0.00 in0.0 mm 0.00 in0.0 mm
12:06 AM 44.7°F7.1°C 41.1°F5.1°C 87% 9.8 mph SW15.8 kmh SW 12.0 mph19.3 kmh 29.64 in1003.7 mb 0.00 in0.0 mm 0.00 in0.0 mm 0.00 in0.0 mm
12:05 AM 44.7°F7.1°C 41.1°F5.1°C 87% 9.6 mph SW15.4 kmh SW 12.0 mph19.3 kmh 29.64 in1003.7 mb 0.00 in0.0 mm 0.00 in0.0 mm 0.00 in0.0 mm
12:04 AM 44.7°F7.1°C 41.1°F5.1°C 87% 8.4 mph SW13.5 kmh SW 11.0 mph17.7 kmh 29.64 in1003.7 mb 0.00 in0.0 mm 0.00 in0.0 mm 0.00 in0.0 mm
12:03 AM 44.7°F7.1°C 41.1°F5.1°C 87% 8.5 mph SW13.7 kmh SW 12.0 mph19.3 kmh 29.64 in1003.7 mb 0.00 in0.0 mm 0.00 in0.0 mm 0.00 in0.0 mm
12:02 AM 44.7°F7.1°C 41.1°F5.1°C 87% 8.8 mph SW14.2 kmh SW 12.0 mph19.3 kmh 29.64 in1003.7 mb 0.00 in0.0 mm 0.00 in0.0 mm 0.00 in0.0 mm
12:01 AM 44.8°F7.1°C 41.2°F5.1°C 87% 7.2 mph SW11.6 kmh SW 12.0 mph19.3 kmh 29.64 in1003.7 mb 0.00 in0.0 mm 0.00 in0.0 mm 0.00 in0.0 mm
12:00 AM 44.8°F7.1°C 41.2°F5.1°C 87% 9.7 mph SW15.6 kmh SW 12.0 mph19.3 kmh 29.64 in1003.7 mb 0.00 in0.0 mm 0.00 in0.0 mm 0.00 in0.0 mm